<?xml version="1.0" encoding="utf-8"?>
<gpx xmlns:xsi="http://www.w3.org/2001/XMLSchema-instance" xmlns:xsd="http://www.w3.org/2001/XMLSchema" version="1.1" creator="Shapelink.com" xmlns="http://www.topografix.com/GPX/1/1" xmlns:gpxtpx="http://www.garmin.com/xmlschemas/TrackPointExtension/v1">
  <metadata>
    <name>Esquí nórdico 18.17 km, 2019-12-31</name>
    <desc></desc>
    <author><name>Per Rooth</name></author> 
    <time>2019-12-31T16:20:35Z</time>
  </metadata>
  <trk>
    <name>Esquí nórdico 18.17 km, 2019-12-31</name>
    <trkseg>
      <trkpt lat="61.30335833277" lon="12.242605822208">
        <ele>442.4</ele>
        <time>2019-12-31T16:20:35Z</time>
      </trkpt>
      <trkpt lat="61.303373587828" lon="12.243026006855">
        <ele>441.8</ele>
        <time>2019-12-31T16:20:38Z</time>
      </trkpt>
      <trkpt lat="61.303352381621" lon="12.243180569091">
        <ele>440.6</ele>
        <time>2019-12-31T16:20:39Z</time>
      </trkpt>
      <trkpt lat="61.303310807397" lon="12.24331727788">
        <ele>439.2</ele>
        <time>2019-12-31T16:20:40Z</time>
      </trkpt>
      <trkpt lat="61.303254145753" lon="12.243419620879">
        <ele>438</ele>
        <time>2019-12-31T16:20:41Z</time>
      </trkpt>
      <trkpt lat="61.303187593467" lon="12.243478377998">
        <ele>437.4</ele>
        <time>2019-12-31T16:20:42Z</time>
      </trkpt>
      <trkpt lat="61.30312280138" lon="12.243488855373">
        <ele>437</ele>
        <time>2019-12-31T16:20:43Z</time>
      </trkpt>
      <trkpt lat="61.303062954614" lon="12.243463206759">
        <ele>436.8</ele>
        <time>2019-12-31T16:20:44Z</time>
      </trkpt>
      <trkpt lat="61.30295767795" lon="12.243429762978">
        <ele>437.6</ele>
        <time>2019-12-31T16:20:46Z</time>
      </trkpt>
      <trkpt lat="61.302907302731" lon="12.243438144878">
        <ele>438</ele>
        <time>2019-12-31T16:20:47Z</time>
      </trkpt>
      <trkpt lat="61.30276237968" lon="12.243482233672">
        <ele>439.2</ele>
        <time>2019-12-31T16:20:50Z</time>
      </trkpt>
      <trkpt lat="61.302316043505" lon="12.243684488919">
        <ele>440</ele>
        <time>2019-12-31T16:21:00Z</time>
      </trkpt>
      <trkpt lat="61.302220573664" lon="12.243727236609">
        <ele>439.8</ele>
        <time>2019-12-31T16:21:02Z</time>
      </trkpt>
      <trkpt lat="61.302001470798" lon="12.243743497495">
        <ele>440.2</ele>
        <time>2019-12-31T16:21:08Z</time>
      </trkpt>
      <trkpt lat="61.301859732869" lon="12.243736624337">
        <ele>441.4</ele>
        <time>2019-12-31T16:21:12Z</time>
      </trkpt>
      <trkpt lat="61.301458658954" lon="12.243863274846">
        <ele>441.4</ele>
        <time>2019-12-31T16:21:22Z</time>
      </trkpt>
      <trkpt lat="61.301292781153" lon="12.2440532087">
        <ele>441.2</ele>
        <time>2019-12-31T16:21:26Z</time>
      </trkpt>
      <trkpt lat="61.301151462319" lon="12.244120599176">
        <ele>441</ele>
        <time>2019-12-31T16:21:29Z</time>
      </trkpt>
      <trkpt lat="61.300697414796" lon="12.244132166198">
        <ele>441.8</ele>
        <time>2019-12-31T16:21:42Z</time>
      </trkpt>
      <trkpt lat="61.300641423704" lon="12.244164520332">
        <ele>442.4</ele>
        <time>2019-12-31T16:21:44Z</time>
      </trkpt>
      <trkpt lat="61.300264070566" lon="12.244612951982">
        <ele>442.4</ele>
        <time>2019-12-31T16:21:57Z</time>
      </trkpt>
      <trkpt lat="61.300182598498" lon="12.244734070437">
        <ele>442</ele>
        <time>2019-12-31T16:22:16Z</time>
      </trkpt>
      <trkpt lat="61.300114621289" lon="12.244861894412">
        <ele>442.2</ele>
        <time>2019-12-31T16:22:22Z</time>
      </trkpt>
      <trkpt lat="61.299991574997" lon="12.245010505499">
        <ele>442.8</ele>
        <time>2019-12-31T16:22:26Z</time>
      </trkpt>
      <trkpt lat="61.299934997172" lon="12.24509926982">
        <ele>443</ele>
        <time>2019-12-31T16:22:28Z</time>
      </trkpt>
      <trkpt lat="61.299881604469" lon="12.245240672473">
        <ele>443</ele>
        <time>2019-12-31T16:22:30Z</time>
      </trkpt>
      <trkpt lat="61.29982955287" lon="12.245375118149">
        <ele>443</ele>
        <time>2019-12-31T16:22:32Z</time>
      </trkpt>
      <trkpt lat="61.299719330885" lon="12.245490285455">
        <ele>443.4</ele>
        <time>2019-12-31T16:22:36Z</time>
      </trkpt>
      <trkpt lat="61.299587735055" lon="12.245502774486">
        <ele>444.4</ele>
        <time>2019-12-31T16:22:39Z</time>
      </trkpt>
      <trkpt lat="61.299508609919" lon="12.24551585025">
        <ele>444.8</ele>
        <time>2019-12-31T16:22:41Z</time>
      </trkpt>
      <trkpt lat="61.299390928043" lon="12.245556334827">
        <ele>444.8</ele>
        <time>2019-12-31T16:22:44Z</time>
      </trkpt>
      <trkpt lat="61.299329656354" lon="12.245595059205">
        <ele>444.8</ele>
        <time>2019-12-31T16:22:46Z</time>
      </trkpt>
      <trkpt lat="61.298848702932" lon="12.245672843237">
        <ele>444.8</ele>
        <time>2019-12-31T16:22:57Z</time>
      </trkpt>
      <trkpt lat="61.298378729799" lon="12.245797398271">
        <ele>445</ele>
        <time>2019-12-31T16:23:09Z</time>
      </trkpt>
      <trkpt lat="61.297893250151" lon="12.24601624968">
        <ele>445</ele>
        <time>2019-12-31T16:23:20Z</time>
      </trkpt>
      <trkpt lat="61.297669453421" lon="12.246124292371">
        <ele>444.4</ele>
        <time>2019-12-31T16:23:25Z</time>
      </trkpt>
      <trkpt lat="61.297596363253" lon="12.24618891682">
        <ele>444.2</ele>
        <time>2019-12-31T16:23:27Z</time>
      </trkpt>
      <trkpt lat="61.297149691802" lon="12.246332834043">
        <ele>444.4</ele>
        <time>2019-12-31T16:23:40Z</time>
      </trkpt>
      <trkpt lat="61.29693109185" lon="12.246387232574">
        <ele>445.4</ele>
        <time>2019-12-31T16:23:47Z</time>
      </trkpt>
      <trkpt lat="61.296598833334" lon="12.246458059629">
        <ele>446.6</ele>
        <time>2019-12-31T16:23:58Z</time>
      </trkpt>
      <trkpt lat="61.296151826607" lon="12.246559815895">
        <ele>447</ele>
        <time>2019-12-31T16:24:11Z</time>
      </trkpt>
      <trkpt lat="61.295846809266" lon="12.246657800306">
        <ele>447.8</ele>
        <time>2019-12-31T16:24:21Z</time>
      </trkpt>
      <trkpt lat="61.295710016658" lon="12.246720916013">
        <ele>449</ele>
        <time>2019-12-31T16:24:26Z</time>
      </trkpt>
      <trkpt lat="61.295546988703" lon="12.246774643992">
        <ele>450.2</ele>
        <time>2019-12-31T16:24:32Z</time>
      </trkpt>
      <trkpt lat="61.2950912648" lon="12.2469114366">
        <ele>450.6</ele>
        <time>2019-12-31T16:24:45Z</time>
      </trkpt>
      <trkpt lat="61.294612742129" lon="12.247038925299">
        <ele>450</ele>
        <time>2019-12-31T16:24:57Z</time>
      </trkpt>
      <trkpt lat="61.294145618842" lon="12.247153422053">
        <ele>450.6</ele>
        <time>2019-12-31T16:25:10Z</time>
      </trkpt>
      <trkpt lat="61.293979657222" lon="12.247224165289">
        <ele>451.2</ele>
        <time>2019-12-31T16:25:16Z</time>
      </trkpt>
      <trkpt lat="61.293852168523" lon="12.247284263512">
        <ele>452.4</ele>
        <time>2019-12-31T16:25:21Z</time>
      </trkpt>
      <trkpt lat="61.293661061203" lon="12.24735064816">
        <ele>453.6</ele>
        <time>2019-12-31T16:25:28Z</time>
      </trkpt>
      <trkpt lat="61.293413878972" lon="12.247470341692">
        <ele>454.6</ele>
        <time>2019-12-31T16:25:37Z</time>
      </trkpt>
      <trkpt lat="61.292959244716" lon="12.247640578081">
        <ele>455.6</ele>
        <time>2019-12-31T16:25:52Z</time>
      </trkpt>
      <trkpt lat="61.292930746256" lon="12.247647618877">
        <ele>455.8</ele>
        <time>2019-12-31T16:25:53Z</time>
      </trkpt>
      <trkpt lat="61.292448703187" lon="12.247776951594">
        <ele>456.8</ele>
        <time>2019-12-31T16:26:07Z</time>
      </trkpt>
      <trkpt lat="61.29240402766" lon="12.247791284643">
        <ele>457</ele>
        <time>2019-12-31T16:26:08Z</time>
      </trkpt>
      <trkpt lat="61.292361950522" lon="12.247800504733">
        <ele>457.2</ele>
        <time>2019-12-31T16:26:09Z</time>
      </trkpt>
      <trkpt lat="61.291914105605" lon="12.247766977133">
        <ele>456.8</ele>
        <time>2019-12-31T16:26:22Z</time>
      </trkpt>
      <trkpt lat="61.291551420792" lon="12.247802348751">
        <ele>458</ele>
        <time>2019-12-31T16:26:34Z</time>
      </trkpt>
      <trkpt lat="61.291117070734" lon="12.248112143775">
        <ele>459.2</ele>
        <time>2019-12-31T16:26:48Z</time>
      </trkpt>
      <trkpt lat="61.290908361424" lon="12.248270729323">
        <ele>460.2</ele>
        <time>2019-12-31T16:26:54Z</time>
      </trkpt>
      <trkpt lat="61.290739047044" lon="12.248393524158">
        <ele>459</ele>
        <time>2019-12-31T16:26:59Z</time>
      </trkpt>
      <trkpt lat="61.290704094521" lon="12.248424034274">
        <ele>458.8</ele>
        <time>2019-12-31T16:27:00Z</time>
      </trkpt>
      <trkpt lat="61.290245604591" lon="12.248778504825">
        <ele>459.4</ele>
        <time>2019-12-31T16:27:13Z</time>
      </trkpt>
      <trkpt lat="61.289817624777" lon="12.249125850761">
        <ele>459.8</ele>
        <time>2019-12-31T16:27:25Z</time>
      </trkpt>
      <trkpt lat="61.28963967704" lon="12.249269097432">
        <ele>459.4</ele>
        <time>2019-12-31T16:27:30Z</time>
      </trkpt>
      <trkpt lat="61.289193089408" lon="12.24959951193">
        <ele>459.4</ele>
        <time>2019-12-31T16:27:42Z</time>
      </trkpt>
      <trkpt lat="61.28915352684" lon="12.249633961539">
        <ele>459.4</ele>
        <time>2019-12-31T16:27:43Z</time>
      </trkpt>
      <trkpt lat="61.288847168395" lon="12.249877288096">
        <ele>459.4</ele>
        <time>2019-12-31T16:27:51Z</time>
      </trkpt>
      <trkpt lat="61.2886874932" lon="12.250058504774">
        <ele>458.8</ele>
        <time>2019-12-31T16:27:55Z</time>
      </trkpt>
      <trkpt lat="61.288565536555" lon="12.250208456965">
        <ele>458.8</ele>
        <time>2019-12-31T16:27:58Z</time>
      </trkpt>
      <trkpt lat="61.288265715992" lon="12.250615146753">
        <ele>458</ele>
        <time>2019-12-31T16:28:06Z</time>
      </trkpt>
      <trkpt lat="61.287874700357" lon="12.251219481743">
        <ele>457.4</ele>
        <time>2019-12-31T16:28:16Z</time>
      </trkpt>
      <trkpt lat="61.287803538026" lon="12.25135300541">
        <ele>456.8</ele>
        <time>2019-12-31T16:28:18Z</time>
      </trkpt>
      <trkpt lat="61.287595080173" lon="12.251710493445">
        <ele>455.4</ele>
        <time>2019-12-31T16:28:23Z</time>
      </trkpt>
      <trkpt lat="61.287469184035" lon="12.251883831137">
        <ele>454.4</ele>
        <time>2019-12-31T16:28:26Z</time>
      </trkpt>
      <trkpt lat="61.287232479179" lon="12.252207707753">
        <ele>453.8</ele>
        <time>2019-12-31T16:28:32Z</time>
      </trkpt>
      <trkpt lat="61.287137260795" lon="12.25237140626">
        <ele>453.8</ele>
        <time>2019-12-31T16:28:35Z</time>
      </trkpt>
      <trkpt lat="61.287111528362" lon="12.252432258854">
        <ele>453.6</ele>
        <time>2019-12-31T16:28:36Z</time>
      </trkpt>
      <trkpt lat="61.287061823695" lon="12.252644320924">
        <ele>451</ele>
        <time>2019-12-31T16:29:37Z</time>
      </trkpt>
      <trkpt lat="61.28693986705" lon="12.252618253215">
        <ele>451.2</ele>
        <time>2019-12-31T16:29:45Z</time>
      </trkpt>
      <trkpt lat="61.286870884013" lon="12.252668796072">
        <ele>452</ele>
        <time>2019-12-31T16:29:47Z</time>
      </trkpt>
      <trkpt lat="61.286717495243" lon="12.252809695811">
        <ele>452.8</ele>
        <time>2019-12-31T16:29:51Z</time>
      </trkpt>
      <trkpt lat="61.286524795362" lon="12.252863004695">
        <ele>453</ele>
        <time>2019-12-31T16:29:56Z</time>
      </trkpt>
      <trkpt lat="61.286076196074" lon="12.252963671314">
        <ele>454</ele>
        <time>2019-12-31T16:30:09Z</time>
      </trkpt>
      <trkpt lat="61.2860052852" lon="12.252997450371">
        <ele>454</ele>
        <time>2019-12-31T16:30:11Z</time>
      </trkpt>
      <trkpt lat="61.28578065028" lon="12.25318445056">
        <ele>453.6</ele>
        <time>2019-12-31T16:30:17Z</time>
      </trkpt>
      <trkpt lat="61.285629943718" lon="12.253304814644">
        <ele>453</ele>
        <time>2019-12-31T16:30:21Z</time>
      </trkpt>
      <trkpt lat="61.285170112684" lon="12.253589715425">
        <ele>453.4</ele>
        <time>2019-12-31T16:30:34Z</time>
      </trkpt>
      <trkpt lat="61.284967689799" lon="12.253688286569">
        <ele>454</ele>
        <time>2019-12-31T16:30:40Z</time>
      </trkpt>
      <trkpt lat="61.284536692501" lon="12.253971930065">
        <ele>454.4</ele>
        <time>2019-12-31T16:30:53Z</time>
      </trkpt>
      <trkpt lat="61.284110305248" lon="12.254287843876">
        <ele>454</ele>
        <time>2019-12-31T16:31:04Z</time>
      </trkpt>
      <trkpt lat="61.283664639625" lon="12.254570649182">
        <ele>453.2</ele>
        <time>2019-12-31T16:31:14Z</time>
      </trkpt>
      <trkpt lat="61.283537737659" lon="12.254655138734">
        <ele>453</ele>
        <time>2019-12-31T16:31:17Z</time>
      </trkpt>
      <trkpt lat="61.283086456163" lon="12.255002233213">
        <ele>453.2</ele>
        <time>2019-12-31T16:31:29Z</time>
      </trkpt>
      <trkpt lat="61.282697200727" lon="12.255254109308">
        <ele>454.2</ele>
        <time>2019-12-31T16:31:40Z</time>
      </trkpt>
      <trkpt lat="61.28224013572" lon="12.255519061167">
        <ele>454.4</ele>
        <time>2019-12-31T16:31:54Z</time>
      </trkpt>
      <trkpt lat="61.282066965666" lon="12.255645963133">
        <ele>455.2</ele>
        <time>2019-12-31T16:31:59Z</time>
      </trkpt>
      <trkpt lat="61.281633956712" lon="12.255998338209">
        <ele>455</ele>
        <time>2019-12-31T16:32:11Z</time>
      </trkpt>
      <trkpt lat="61.281234894453" lon="12.256469987722">
        <ele>454.6</ele>
        <time>2019-12-31T16:32:22Z</time>
      </trkpt>
      <trkpt lat="61.281128276685" lon="12.256644331242">
        <ele>454</ele>
        <time>2019-12-31T16:32:25Z</time>
      </trkpt>
      <trkpt lat="61.280785205518" lon="12.257246570757">
        <ele>454.4</ele>
        <time>2019-12-31T16:32:37Z</time>
      </trkpt>
      <trkpt lat="61.280524193152" lon="12.257484784355">
        <ele>455</ele>
        <time>2019-12-31T16:32:45Z</time>
      </trkpt>
      <trkpt lat="61.280348508528" lon="12.257608165923">
        <ele>456</ele>
        <time>2019-12-31T16:32:50Z</time>
      </trkpt>
      <trkpt lat="61.280127980739" lon="12.257747724558">
        <ele>457</ele>
        <time>2019-12-31T16:32:57Z</time>
      </trkpt>
      <trkpt lat="61.279695307061" lon="12.258038995583">
        <ele>457.4</ele>
        <time>2019-12-31T16:33:11Z</time>
      </trkpt>
      <trkpt lat="61.279545187232" lon="12.258187522851">
        <ele>458.4</ele>
        <time>2019-12-31T16:33:16Z</time>
      </trkpt>
      <trkpt lat="61.279111926821" lon="12.258605109109">
        <ele>458.8</ele>
        <time>2019-12-31T16:33:29Z</time>
      </trkpt>
      <trkpt lat="61.27868956288" lon="12.258971565777">
        <ele>458.4</ele>
        <time>2019-12-31T16:33:39Z</time>
      </trkpt>
      <trkpt lat="61.278243226705" lon="12.25930072299">
        <ele>457.8</ele>
        <time>2019-12-31T16:33:50Z</time>
      </trkpt>
      <trkpt lat="61.277836453098" lon="12.259492081767">
        <ele>459.4</ele>
        <time>2019-12-31T16:34:01Z</time>
      </trkpt>
      <trkpt lat="61.27742054322" lon="12.259713615384">
        <ele>460.4</ele>
        <time>2019-12-31T16:34:13Z</time>
      </trkpt>
      <trkpt lat="61.276947049689" lon="12.259909500387">
        <ele>459.8</ele>
        <time>2019-12-31T16:34:26Z</time>
      </trkpt>
      <trkpt lat="61.276610684042" lon="12.260070097591">
        <ele>461.4</ele>
        <time>2019-12-31T16:34:35Z</time>
      </trkpt>
      <trkpt lat="61.276166024247" lon="12.260298672004">
        <ele>461.4</ele>
        <time>2019-12-31T16:34:46Z</time>
      </trkpt>
      <trkpt lat="61.275716670588" lon="12.260510901712">
        <ele>460.8</ele>
        <time>2019-12-31T16:34:57Z</time>
      </trkpt>
      <trkpt lat="61.275495891342" lon="12.26057980093">
        <ele>462.6</ele>
        <time>2019-12-31T16:35:04Z</time>
      </trkpt>
      <trkpt lat="61.275252061871" lon="12.260679796997">
        <ele>464</ele>
        <time>2019-12-31T16:35:13Z</time>
      </trkpt>
      <trkpt lat="61.274914103663" lon="12.260828994817">
        <ele>465.2</ele>
        <time>2019-12-31T16:35:23Z</time>
      </trkpt>
      <trkpt lat="61.27473079151" lon="12.260886746108">
        <ele>466.2</ele>
        <time>2019-12-31T16:35:28Z</time>
      </trkpt>
      <trkpt lat="61.274267104802" lon="12.261090426278">
        <ele>465.6</ele>
        <time>2019-12-31T16:35:40Z</time>
      </trkpt>
      <trkpt lat="61.274229302433" lon="12.261107273897">
        <ele>465.2</ele>
        <time>2019-12-31T16:35:41Z</time>
      </trkpt>
      <trkpt lat="61.273779110584" lon="12.261282790883">
        <ele>466</ele>
        <time>2019-12-31T16:35:54Z</time>
      </trkpt>
      <trkpt lat="61.273745834441" lon="12.261297123932">
        <ele>466.4</ele>
        <time>2019-12-31T16:35:55Z</time>
      </trkpt>
      <trkpt lat="61.273592361852" lon="12.261348840255">
        <ele>467.4</ele>
        <time>2019-12-31T16:36:00Z</time>
      </trkpt>
      <trkpt lat="61.273243507174" lon="12.261445232105">
        <ele>468.6</ele>
        <time>2019-12-31T16:36:13Z</time>
      </trkpt>
      <trkpt lat="61.273094728449" lon="12.261492170745">
        <ele>469.6</ele>
        <time>2019-12-31T16:36:19Z</time>
      </trkpt>
      <trkpt lat="61.272716034207" lon="12.261634495407">
        <ele>470.6</ele>
        <time>2019-12-31T16:36:32Z</time>
      </trkpt>
      <trkpt lat="61.272561807247" lon="12.261731809266">
        <ele>471.8</ele>
        <time>2019-12-31T16:36:38Z</time>
      </trkpt>
      <trkpt lat="61.272389810659" lon="12.261828787849">
        <ele>472.8</ele>
        <time>2019-12-31T16:36:45Z</time>
      </trkpt>
      <trkpt lat="61.272201888461" lon="12.261913528858">
        <ele>474</ele>
        <time>2019-12-31T16:36:52Z</time>
      </trkpt>
      <trkpt lat="61.27181975764" lon="12.262025930137">
        <ele>475</ele>
        <time>2019-12-31T16:37:04Z</time>
      </trkpt>
      <trkpt lat="61.271355316561" lon="12.262128608412">
        <ele>475.2</ele>
        <time>2019-12-31T16:37:17Z</time>
      </trkpt>
      <trkpt lat="61.270894060604" lon="12.262240758234">
        <ele>475.6</ele>
        <time>2019-12-31T16:37:31Z</time>
      </trkpt>
      <trkpt lat="61.270811079794" lon="12.26226456283">
        <ele>476</ele>
        <time>2019-12-31T16:37:34Z</time>
      </trkpt>
      <trkpt lat="61.270632629143" lon="12.262311836746">
        <ele>477.2</ele>
        <time>2019-12-31T16:37:41Z</time>
      </trkpt>
      <trkpt lat="61.270158884155" lon="12.262367324924">
        <ele>477.2</ele>
        <time>2019-12-31T16:37:54Z</time>
      </trkpt>
      <trkpt lat="61.26972009169" lon="12.262509481948">
        <ele>478.4</ele>
        <time>2019-12-31T16:38:07Z</time>
      </trkpt>
      <trkpt lat="61.269595033742" lon="12.262542338996">
        <ele>479.4</ele>
        <time>2019-12-31T16:38:12Z</time>
      </trkpt>
      <trkpt lat="61.2693504499" lon="12.26264091014">
        <ele>480.4</ele>
        <time>2019-12-31T16:38:20Z</time>
      </trkpt>
      <trkpt lat="61.26897410259" lon="12.26277585873">
        <ele>481.6</ele>
        <time>2019-12-31T16:38:32Z</time>
      </trkpt>
      <trkpt lat="61.26883496305" lon="12.262768817934">
        <ele>482.6</ele>
        <time>2019-12-31T16:38:37Z</time>
      </trkpt>
      <trkpt lat="61.268565401146" lon="12.262712240109">
        <ele>483.6</ele>
        <time>2019-12-31T16:38:48Z</time>
      </trkpt>
      <trkpt lat="61.268449060374" lon="12.262664966193">
        <ele>484.8</ele>
        <time>2019-12-31T16:38:53Z</time>
      </trkpt>
      <trkpt lat="61.268267843696" lon="12.262622302322">
        <ele>485.8</ele>
        <time>2019-12-31T16:39:01Z</time>
      </trkpt>
      <trkpt lat="61.267811952155" lon="12.262456424521">
        <ele>486.6</ele>
        <time>2019-12-31T16:39:16Z</time>
      </trkpt>
      <trkpt lat="61.267354468053" lon="12.262301694647">
        <ele>486.2</ele>
        <time>2019-12-31T16:39:29Z</time>
      </trkpt>
      <trkpt lat="61.267158750688" lon="12.262288115969">
        <ele>487</ele>
        <time>2019-12-31T16:39:34Z</time>
      </trkpt>
      <trkpt lat="61.26673278253" lon="12.262458687634">
        <ele>488.4</ele>
        <time>2019-12-31T16:39:49Z</time>
      </trkpt>
      <trkpt lat="61.266598001578" lon="12.262523479721">
        <ele>489.4</ele>
        <time>2019-12-31T16:39:56Z</time>
      </trkpt>
      <trkpt lat="61.266498340787" lon="12.262597156622">
        <ele>490.6</ele>
        <time>2019-12-31T16:40:01Z</time>
      </trkpt>
      <trkpt lat="61.266396919797" lon="12.262666977849">
        <ele>491.6</ele>
        <time>2019-12-31T16:40:06Z</time>
      </trkpt>
      <trkpt lat="61.266264066682" lon="12.262780636413">
        <ele>492.8</ele>
        <time>2019-12-31T16:40:13Z</time>
      </trkpt>
      <trkpt lat="61.26618376808" lon="12.262887840914">
        <ele>493.8</ele>
        <time>2019-12-31T16:40:17Z</time>
      </trkpt>
      <trkpt lat="61.266026439817" lon="12.263124461951">
        <ele>495</ele>
        <time>2019-12-31T16:40:24Z</time>
      </trkpt>
      <trkpt lat="61.265677752777" lon="12.263775987038">
        <ele>494.6</ele>
        <time>2019-12-31T16:40:36Z</time>
      </trkpt>
      <trkpt lat="61.26560206422" lon="12.263929040532">
        <ele>493.6</ele>
        <time>2019-12-31T16:40:38Z</time>
      </trkpt>
      <trkpt lat="61.265515814469" lon="12.264101707672">
        <ele>491.8</ele>
        <time>2019-12-31T16:40:40Z</time>
      </trkpt>
      <trkpt lat="61.265469127286" lon="12.26419323802">
        <ele>490.8</ele>
        <time>2019-12-31T16:40:41Z</time>
      </trkpt>
      <trkpt lat="61.265349098478" lon="12.264443353916">
        <ele>488.8</ele>
        <time>2019-12-31T16:40:43Z</time>
      </trkpt>
      <trkpt lat="61.265148938706" lon="12.264821629063">
        <ele>490.8</ele>
        <time>2019-12-31T16:40:48Z</time>
      </trkpt>
      <trkpt lat="61.265081129135" lon="12.264933108333">
        <ele>492</ele>
        <time>2019-12-31T16:40:50Z</time>
      </trkpt>
      <trkpt lat="61.264942660147" lon="12.265099824324">
        <ele>493.2</ele>
        <time>2019-12-31T16:40:54Z</time>
      </trkpt>
      <trkpt lat="61.264508980641" lon="12.265351281324">
        <ele>492.8</ele>
        <time>2019-12-31T16:41:04Z</time>
      </trkpt>
      <trkpt lat="61.264036241481" lon="12.265516572392">
        <ele>492.2</ele>
        <time>2019-12-31T16:41:16Z</time>
      </trkpt>
      <trkpt lat="61.26400363589" lon="12.265524032283">
        <ele>492.2</ele>
        <time>2019-12-31T16:41:17Z</time>
      </trkpt>
      <trkpt lat="61.26371026939" lon="12.265555799684">
        <ele>493.2</ele>
        <time>2019-12-31T16:41:25Z</time>
      </trkpt>
      <trkpt lat="61.263264436129" lon="12.265416073411">
        <ele>494</ele>
        <time>2019-12-31T16:41:39Z</time>
      </trkpt>
      <trkpt lat="61.263234764203" lon="12.265405596036">
        <ele>494.4</ele>
        <time>2019-12-31T16:41:40Z</time>
      </trkpt>
      <trkpt lat="61.263029994386" lon="12.265316244982">
        <ele>495.6</ele>
        <time>2019-12-31T16:41:48Z</time>
      </trkpt>
      <trkpt lat="61.262832516822" lon="12.265289506721">
        <ele>496.8</ele>
        <time>2019-12-31T16:41:56Z</time>
      </trkpt>
      <trkpt lat="61.262674769464" lon="12.265341977415">
        <ele>497.8</ele>
        <time>2019-12-31T16:42:03Z</time>
      </trkpt>
      <trkpt lat="61.262542167806" lon="12.26540945171">
        <ele>499</ele>
        <time>2019-12-31T16:42:08Z</time>
      </trkpt>
      <trkpt lat="61.26210681192" lon="12.265691251188">
        <ele>499.2</ele>
        <time>2019-12-31T16:42:20Z</time>
      </trkpt>
      <trkpt lat="61.261700038313" lon="12.265780937518">
        <ele>500.2</ele>
        <time>2019-12-31T16:42:34Z</time>
      </trkpt>
      <trkpt lat="61.261602137721" lon="12.265724946426">
        <ele>501.2</ele>
        <time>2019-12-31T16:42:39Z</time>
      </trkpt>
      <trkpt lat="61.261449251865" lon="12.265546244318">
        <ele>502.4</ele>
        <time>2019-12-31T16:42:46Z</time>
      </trkpt>
      <trkpt lat="61.261322433718" lon="12.265212393241">
        <ele>503.4</ele>
        <time>2019-12-31T16:42:54Z</time>
      </trkpt>
      <trkpt lat="61.261260323839" lon="12.264947106106">
        <ele>504.6</ele>
        <time>2019-12-31T16:43:00Z</time>
      </trkpt>
      <trkpt lat="61.261221348004" lon="12.264546618924">
        <ele>505.6</ele>
        <time>2019-12-31T16:43:08Z</time>
      </trkpt>
      <trkpt lat="61.261250936111" lon="12.264148059579">
        <ele>506.6</ele>
        <time>2019-12-31T16:43:16Z</time>
      </trkpt>
      <trkpt lat="61.261296449828" lon="12.263875983105">
        <ele>507.8</ele>
        <time>2019-12-31T16:43:22Z</time>
      </trkpt>
      <trkpt lat="61.261309357954" lon="12.263684289052">
        <ele>508.2</ele>
        <time>2019-12-31T16:43:26Z</time>
      </trkpt>
      <trkpt lat="61.261315728198" lon="12.263568618832">
        <ele>508.8</ele>
        <time>2019-12-31T16:43:28Z</time>
      </trkpt>
      <trkpt lat="61.261307681574" lon="12.263301236222">
        <ele>509.8</ele>
        <time>2019-12-31T16:43:34Z</time>
      </trkpt>
      <trkpt lat="61.26128287115" lon="12.26299043537">
        <ele>511</ele>
        <time>2019-12-31T16:43:41Z</time>
      </trkpt>
      <trkpt lat="61.261246661342" lon="12.262755909808">
        <ele>512.2</ele>
        <time>2019-12-31T16:43:46Z</time>
      </trkpt>
      <trkpt lat="61.261183461816" lon="12.262359781214">
        <ele>513.2</ele>
        <time>2019-12-31T16:43:55Z</time>
      </trkpt>
      <trkpt lat="61.261131577855" lon="12.262015536581">
        <ele>514.4</ele>
        <time>2019-12-31T16:44:03Z</time>
      </trkpt>
      <trkpt lat="61.261091093278" lon="12.261860471431">
        <ele>515.2</ele>
        <time>2019-12-31T16:44:07Z</time>
      </trkpt>
      <trkpt lat="61.261072234003" lon="12.261781681571">
        <ele>515.6</ele>
        <time>2019-12-31T16:44:09Z</time>
      </trkpt>
      <trkpt lat="61.261037868213" lon="12.26148169337">
        <ele>516.6</ele>
        <time>2019-12-31T16:44:16Z</time>
      </trkpt>
      <trkpt lat="61.261017584015" lon="12.261215819502">
        <ele>517.8</ele>
        <time>2019-12-31T16:44:23Z</time>
      </trkpt>
      <trkpt lat="61.260974668687" lon="12.260907449401">
        <ele>519</ele>
        <time>2019-12-31T16:44:31Z</time>
      </trkpt>
      <trkpt lat="61.26094256601" lon="12.260660770084">
        <ele>520</ele>
        <time>2019-12-31T16:44:37Z</time>
      </trkpt>
      <trkpt lat="61.261004424432" lon="12.261241216659">
        <ele>518.6</ele>
        <time>2019-12-31T16:44:53Z</time>
      </trkpt>
      <trkpt lat="61.261035102186" lon="12.261453614005">
        <ele>517</ele>
        <time>2019-12-31T16:44:55Z</time>
      </trkpt>
      <trkpt lat="61.261071982546" lon="12.261727534497">
        <ele>515.8</ele>
        <time>2019-12-31T16:44:57Z</time>
      </trkpt>
      <trkpt lat="61.261115568426" lon="12.262030288725">
        <ele>514.2</ele>
        <time>2019-12-31T16:44:59Z</time>
      </trkpt>
      <trkpt lat="61.261163680532" lon="12.262326505071">
        <ele>512.6</ele>
        <time>2019-12-31T16:45:01Z</time>
      </trkpt>
      <trkpt lat="61.261216737959" lon="12.262644514357">
        <ele>511</ele>
        <time>2019-12-31T16:45:03Z</time>
      </trkpt>
      <trkpt lat="61.261262419314" lon="12.262973252475">
        <ele>509.6</ele>
        <time>2019-12-31T16:45:05Z</time>
      </trkpt>
      <trkpt lat="61.261294941086" lon="12.263315317814">
        <ele>508.4</ele>
        <time>2019-12-31T16:45:07Z</time>
      </trkpt>
      <trkpt lat="61.261291169231" lon="12.263678840817">
        <ele>507.2</ele>
        <time>2019-12-31T16:45:09Z</time>
      </trkpt>
      <trkpt lat="61.261263006047" lon="12.264040855078">
        <ele>505.8</ele>
        <time>2019-12-31T16:45:11Z</time>
      </trkpt>
      <trkpt lat="61.26123928527" lon="12.264428182677">
        <ele>503.8</ele>
        <time>2019-12-31T16:45:13Z</time>
      </trkpt>
      <trkpt lat="61.261258898916" lon="12.264893461946">
        <ele>502.8</ele>
        <time>2019-12-31T16:45:15Z</time>
      </trkpt>
      <trkpt lat="61.26129376762" lon="12.265121449626">
        <ele>502.6</ele>
        <time>2019-12-31T16:45:16Z</time>
      </trkpt>
      <trkpt lat="61.261344394296" lon="12.265326889995">
        <ele>503.6</ele>
        <time>2019-12-31T16:45:17Z</time>
      </trkpt>
      <trkpt lat="61.261404157243" lon="12.265496120556">
        <ele>501.6</ele>
        <time>2019-12-31T16:45:18Z</time>
      </trkpt>
      <trkpt lat="61.261472218271" lon="12.265634421906">
        <ele>500.2</ele>
        <time>2019-12-31T16:45:19Z</time>
      </trkpt>
      <trkpt lat="61.261635832959" lon="12.265844220863">
        <ele>498.6</ele>
        <time>2019-12-31T16:45:21Z</time>
      </trkpt>
      <trkpt lat="61.261914950229" lon="12.265982354575">
        <ele>498</ele>
        <time>2019-12-31T16:45:24Z</time>
      </trkpt>
      <trkpt lat="61.262015952124" lon="12.265941450903">
        <ele>497.2</ele>
        <time>2019-12-31T16:45:25Z</time>
      </trkpt>
      <trkpt lat="61.262116786381" lon="12.265896775376">
        <ele>496.2</ele>
        <time>2019-12-31T16:45:26Z</time>
      </trkpt>
      <trkpt lat="61.262212675317" lon="12.26583609042">
        <ele>495</ele>
        <time>2019-12-31T16:45:27Z</time>
      </trkpt>
      <trkpt lat="61.262461198652" lon="12.265628973671">
        <ele>494</ele>
        <time>2019-12-31T16:45:30Z</time>
      </trkpt>
      <trkpt lat="61.262840395808" lon="12.265446918803">
        <ele>494.8</ele>
        <time>2019-12-31T16:45:35Z</time>
      </trkpt>
      <trkpt lat="61.262922622247" lon="12.265447924631">
        <ele>494.8</ele>
        <time>2019-12-31T16:45:36Z</time>
      </trkpt>
      <trkpt lat="61.263285055603" lon="12.265554710037">
        <ele>492.6</ele>
        <time>2019-12-31T16:45:40Z</time>
      </trkpt>
      <trkpt lat="61.263450262852" lon="12.265623022522">
        <ele>490.8</ele>
        <time>2019-12-31T16:45:42Z</time>
      </trkpt>
      <trkpt lat="61.263623432906" lon="12.265665686393">
        <ele>489.6</ele>
        <time>2019-12-31T16:45:44Z</time>
      </trkpt>
      <trkpt lat="61.263709095924" lon="12.265672559551">
        <ele>489</ele>
        <time>2019-12-31T16:45:45Z</time>
      </trkpt>
      <trkpt lat="61.26388377472" lon="12.265662920366">
        <ele>488.4</ele>
        <time>2019-12-31T16:45:47Z</time>
      </trkpt>
      <trkpt lat="61.264378809734" lon="12.26549159433">
        <ele>487.6</ele>
        <time>2019-12-31T16:45:53Z</time>
      </trkpt>
      <trkpt lat="61.264780721839" lon="12.265241394615">
        <ele>489.6</ele>
        <time>2019-12-31T16:45:59Z</time>
      </trkpt>
      <trkpt lat="61.26482506209" lon="12.265207280282">
        <ele>490.8</ele>
        <time>2019-12-31T16:46:00Z</time>
      </trkpt>
      <trkpt lat="61.264909886918" lon="12.265151875923">
        <ele>492.2</ele>
        <time>2019-12-31T16:46:02Z</time>
      </trkpt>
      <trkpt lat="61.264956909377" lon="12.265123712739">
        <ele>492.6</ele>
        <time>2019-12-31T16:46:03Z</time>
      </trkpt>
      <trkpt lat="61.265109711414" lon="12.264923050053">
        <ele>493</ele>
        <time>2019-12-31T16:46:07Z</time>
      </trkpt>
      <trkpt lat="61.26546460106" lon="12.264219641005">
        <ele>491.6</ele>
        <time>2019-12-31T16:46:16Z</time>
      </trkpt>
      <trkpt lat="61.26558362404" lon="12.2639937488">
        <ele>491.2</ele>
        <time>2019-12-31T16:46:20Z</time>
      </trkpt>
      <trkpt lat="61.265776743016" lon="12.263610444513">
        <ele>492.4</ele>
        <time>2019-12-31T16:46:29Z</time>
      </trkpt>
      <trkpt lat="61.265846145148" lon="12.263458313028">
        <ele>493.8</ele>
        <time>2019-12-31T16:46:32Z</time>
      </trkpt>
      <trkpt lat="61.266105313496" lon="12.263079870243">
        <ele>495</ele>
        <time>2019-12-31T16:46:41Z</time>
      </trkpt>
      <trkpt lat="61.266224085019" lon="12.262938216133">
        <ele>494.8</ele>
        <time>2019-12-31T16:46:44Z</time>
      </trkpt>
      <trkpt lat="61.266317124109" lon="12.262854480952">
        <ele>494.6</ele>
        <time>2019-12-31T16:46:46Z</time>
      </trkpt>
      <trkpt lat="61.266394237589" lon="12.262769404667">
        <ele>493.4</ele>
        <time>2019-12-31T16:46:48Z</time>
      </trkpt>
      <trkpt lat="61.266493311647" lon="12.262715006136">
        <ele>491.6</ele>
        <time>2019-12-31T16:46:50Z</time>
      </trkpt>
      <trkpt lat="61.266620129794" lon="12.262637138285">
        <ele>489.4</ele>
        <time>2019-12-31T16:46:52Z</time>
      </trkpt>
      <trkpt lat="61.266689531926" lon="12.262599922649">
        <ele>488.2</ele>
        <time>2019-12-31T16:46:53Z</time>
      </trkpt>
      <trkpt lat="61.266765555759" lon="12.26256128209">
        <ele>487</ele>
        <time>2019-12-31T16:46:54Z</time>
      </trkpt>
      <trkpt lat="61.266844177981" lon="12.262522557712">
        <ele>485.6</ele>
        <time>2019-12-31T16:46:55Z</time>
      </trkpt>
      <trkpt lat="61.266935121596" lon="12.262480229117">
        <ele>484.2</ele>
        <time>2019-12-31T16:46:56Z</time>
      </trkpt>
      <trkpt lat="61.26702698722" lon="12.262440498911">
        <ele>483</ele>
        <time>2019-12-31T16:46:57Z</time>
      </trkpt>
      <trkpt lat="61.267131174237" lon="12.26240537875">
        <ele>482.2</ele>
        <time>2019-12-31T16:46:58Z</time>
      </trkpt>
      <trkpt lat="61.267226979354" lon="12.262405294931">
        <ele>482</ele>
        <time>2019-12-31T16:46:59Z</time>
      </trkpt>
      <trkpt lat="61.267704663835" lon="12.262483414239">
        <ele>482.2</ele>
        <time>2019-12-31T16:47:05Z</time>
      </trkpt>
      <trkpt lat="61.267996270136" lon="12.262571005094">
        <ele>483</ele>
        <time>2019-12-31T16:47:09Z</time>
      </trkpt>
      <trkpt lat="61.268105821569" lon="12.262619536295">
        <ele>484.4</ele>
        <time>2019-12-31T16:47:11Z</time>
      </trkpt>
      <trkpt lat="61.268156951159" lon="12.262638814665">
        <ele>485.8</ele>
        <time>2019-12-31T16:47:12Z</time>
      </trkpt>
      <trkpt lat="61.268207494016" lon="12.262648537669">
        <ele>486.8</ele>
        <time>2019-12-31T16:47:13Z</time>
      </trkpt>
      <trkpt lat="61.268258623606" lon="12.262661361976">
        <ele>487.2</ele>
        <time>2019-12-31T16:47:14Z</time>
      </trkpt>
      <trkpt lat="61.268547128604" lon="12.262730931746">
        <ele>486.2</ele>
        <time>2019-12-31T16:47:19Z</time>
      </trkpt>
      <trkpt lat="61.268750641136" lon="12.262770494314">
        <ele>484.6</ele>
        <time>2019-12-31T16:47:22Z</time>
      </trkpt>
      <trkpt lat="61.268880979681" lon="12.262796310566">
        <ele>483</ele>
        <time>2019-12-31T16:47:24Z</time>
      </trkpt>
      <trkpt lat="61.268947531967" lon="12.262799076593">
        <ele>481.8</ele>
        <time>2019-12-31T16:47:25Z</time>
      </trkpt>
      <trkpt lat="61.26901936485" lon="12.262802345534">
        <ele>480.4</ele>
        <time>2019-12-31T16:47:26Z</time>
      </trkpt>
      <trkpt lat="61.269090443362" lon="12.262798908955">
        <ele>479.4</ele>
        <time>2019-12-31T16:47:27Z</time>
      </trkpt>
      <trkpt lat="61.269228828531" lon="12.262775355816">
        <ele>478</ele>
        <time>2019-12-31T16:47:29Z</time>
      </trkpt>
      <trkpt lat="61.269559829762" lon="12.262657422483">
        <ele>477</ele>
        <time>2019-12-31T16:47:34Z</time>
      </trkpt>
      <trkpt lat="61.269838695575" lon="12.262527000119">
        <ele>475.8</ele>
        <time>2019-12-31T16:47:38Z</time>
      </trkpt>
      <trkpt lat="61.269907930069" lon="12.262508224663">
        <ele>475.2</ele>
        <time>2019-12-31T16:47:39Z</time>
      </trkpt>
      <trkpt lat="61.269974566174" lon="12.26249841784">
        <ele>474.6</ele>
        <time>2019-12-31T16:47:40Z</time>
      </trkpt>
      <trkpt lat="61.270200793655" lon="12.262451646838">
        <ele>473.6</ele>
        <time>2019-12-31T16:47:43Z</time>
      </trkpt>
      <trkpt lat="61.270412855725" lon="12.262447539707">
        <ele>475.6</ele>
        <time>2019-12-31T16:47:46Z</time>
      </trkpt>
      <trkpt lat="61.270464488229" lon="12.262444857499">
        <ele>476.8</ele>
        <time>2019-12-31T16:47:47Z</time>
      </trkpt>
      <trkpt lat="61.270570183988" lon="12.262427590785">
        <ele>478</ele>
        <time>2019-12-31T16:47:49Z</time>
      </trkpt>
      <trkpt lat="61.271032194316" lon="12.262331115116">
        <ele>477.8</ele>
        <time>2019-12-31T16:47:57Z</time>
      </trkpt>
      <trkpt lat="61.271161946128" lon="12.262285014666">
        <ele>476.6</ele>
        <time>2019-12-31T16:47:59Z</time>
      </trkpt>
      <trkpt lat="61.271571904857" lon="12.262151826275">
        <ele>475.8</ele>
        <time>2019-12-31T16:48:06Z</time>
      </trkpt>
      <trkpt lat="61.271667793793" lon="12.262087872378">
        <ele>475.4</ele>
        <time>2019-12-31T16:48:08Z</time>
      </trkpt>
      <trkpt lat="61.271761671073" lon="12.262024086119">
        <ele>475.2</ele>
        <time>2019-12-31T16:48:10Z</time>
      </trkpt>
      <trkpt lat="61.272202642832" lon="12.261848652952">
        <ele>474.4</ele>
        <time>2019-12-31T16:48:19Z</time>
      </trkpt>
      <trkpt lat="61.272313200093" lon="12.261795679344">
        <ele>474.4</ele>
        <time>2019-12-31T16:48:21Z</time>
      </trkpt>
      <trkpt lat="61.27260849443" lon="12.261632902846">
        <ele>473.4</ele>
        <time>2019-12-31T16:48:26Z</time>
      </trkpt>
      <trkpt lat="61.272660043115" lon="12.261598117961">
        <ele>473</ele>
        <time>2019-12-31T16:48:27Z</time>
      </trkpt>
      <trkpt lat="61.272764481589" lon="12.261547826561">
        <ele>470.8</ele>
        <time>2019-12-31T16:48:29Z</time>
      </trkpt>
      <trkpt lat="61.272819969767" lon="12.261533242055">
        <ele>469.4</ele>
        <time>2019-12-31T16:48:30Z</time>
      </trkpt>
      <trkpt lat="61.272874703574" lon="12.261522261766">
        <ele>468.2</ele>
        <time>2019-12-31T16:48:31Z</time>
      </trkpt>
      <trkpt lat="61.272987607767" lon="12.261500887921">
        <ele>466.8</ele>
        <time>2019-12-31T16:48:33Z</time>
      </trkpt>
      <trkpt lat="61.273305449415" lon="12.261463756104">
        <ele>465.6</ele>
        <time>2019-12-31T16:48:38Z</time>
      </trkpt>
      <trkpt lat="61.273443666946" lon="12.26143056378">
        <ele>464.4</ele>
        <time>2019-12-31T16:48:40Z</time>
      </trkpt>
      <trkpt lat="61.27359001492" lon="12.26139284523">
        <ele>463.2</ele>
        <time>2019-12-31T16:48:42Z</time>
      </trkpt>
      <trkpt lat="61.27381297346" lon="12.261313636275">
        <ele>462.2</ele>
        <time>2019-12-31T16:48:45Z</time>
      </trkpt>
      <trkpt lat="61.274372800561" lon="12.2611690485">
        <ele>461.6</ele>
        <time>2019-12-31T16:48:52Z</time>
      </trkpt>
      <trkpt lat="61.274608751046" lon="12.261096628884">
        <ele>464</ele>
        <time>2019-12-31T16:48:56Z</time>
      </trkpt>
      <trkpt lat="61.27472073323" lon="12.26104248181">
        <ele>465.4</ele>
        <time>2019-12-31T16:48:58Z</time>
      </trkpt>
      <trkpt lat="61.274868841403" lon="12.260960087733">
        <ele>466.4</ele>
        <time>2019-12-31T16:49:01Z</time>
      </trkpt>
      <trkpt lat="61.27533009736" lon="12.260747522749">
        <ele>466.4</ele>
        <time>2019-12-31T16:49:10Z</time>
      </trkpt>
      <trkpt lat="61.27561927291" lon="12.260609221399">
        <ele>465.2</ele>
        <time>2019-12-31T16:49:15Z</time>
      </trkpt>
      <trkpt lat="61.27568381354" lon="12.2605823155">
        <ele>463.6</ele>
        <time>2019-12-31T16:49:16Z</time>
      </trkpt>
      <trkpt lat="61.275749443817" lon="12.260551973022">
        <ele>462</ele>
        <time>2019-12-31T16:49:17Z</time>
      </trkpt>
      <trkpt lat="61.275813816809" lon="12.260522301096">
        <ele>460.4</ele>
        <time>2019-12-31T16:49:18Z</time>
      </trkpt>
      <trkpt lat="61.27587659724" lon="12.260491288066">
        <ele>459.2</ele>
        <time>2019-12-31T16:49:19Z</time>
      </trkpt>
      <trkpt lat="61.275993692383" lon="12.260437057173">
        <ele>458</ele>
        <time>2019-12-31T16:49:21Z</time>
      </trkpt>
      <trkpt lat="61.276337769378" lon="12.260261204911">
        <ele>459.4</ele>
        <time>2019-12-31T16:49:27Z</time>
      </trkpt>
      <trkpt lat="61.276392000271" lon="12.260242429455">
        <ele>460.8</ele>
        <time>2019-12-31T16:49:28Z</time>
      </trkpt>
      <trkpt lat="61.27644237549" lon="12.260224659827">
        <ele>461.8</ele>
        <time>2019-12-31T16:49:29Z</time>
      </trkpt>
      <trkpt lat="61.276696682336" lon="12.260133967669">
        <ele>462.6</ele>
        <time>2019-12-31T16:49:34Z</time>
      </trkpt>
      <trkpt lat="61.277156178094" lon="12.25992685092">
        <ele>462</ele>
        <time>2019-12-31T16:49:43Z</time>
      </trkpt>
      <trkpt lat="61.277313087262" lon="12.259841104083">
        <ele>461.4</ele>
        <time>2019-12-31T16:49:46Z</time>
      </trkpt>
      <trkpt lat="61.27740713218" lon="12.259772456322">
        <ele>461.2</ele>
        <time>2019-12-31T16:49:48Z</time>
      </trkpt>
      <trkpt lat="61.277551217041" lon="12.259668101667">
        <ele>460.8</ele>
        <time>2019-12-31T16:49:51Z</time>
      </trkpt>
      <trkpt lat="61.27759740131" lon="12.259647566012">
        <ele>460.6</ele>
        <time>2019-12-31T16:49:52Z</time>
      </trkpt>
      <trkpt lat="61.277696056273" lon="12.259594257128">
        <ele>460.6</ele>
        <time>2019-12-31T16:49:54Z</time>
      </trkpt>
      <trkpt lat="61.277794627417" lon="12.259541618796">
        <ele>460.6</ele>
        <time>2019-12-31T16:49:56Z</time>
      </trkpt>
      <trkpt lat="61.278271389889" lon="12.259311451822">
        <ele>459.8</ele>
        <time>2019-12-31T16:50:05Z</time>
      </trkpt>
      <trkpt lat="61.278366272997" lon="12.25924707883">
        <ele>459.8</ele>
        <time>2019-12-31T16:50:07Z</time>
      </trkpt>
      <trkpt lat="61.278796515924" lon="12.258888417329">
        <ele>459.8</ele>
        <time>2019-12-31T16:50:17Z</time>
      </trkpt>
      <trkpt lat="61.278908665746" lon="12.258792360755">
        <ele>459.8</ele>
        <time>2019-12-31T16:50:20Z</time>
      </trkpt>
      <trkpt lat="61.279242935918" lon="12.25847929679">
        <ele>460.2</ele>
        <time>2019-12-31T16:50:29Z</time>
      </trkpt>
      <trkpt lat="61.279478718765" lon="12.258301432872">
        <ele>460</ele>
        <time>2019-12-31T16:50:35Z</time>
      </trkpt>
      <trkpt lat="61.279697318717" lon="12.258128346637">
        <ele>459.8</ele>
        <time>2019-12-31T16:50:40Z</time>
      </trkpt>
      <trkpt lat="61.280151450059" lon="12.257806984591">
        <ele>459</ele>
        <time>2019-12-31T16:50:49Z</time>
      </trkpt>
      <trkpt lat="61.280260582397" lon="12.257721908306">
        <ele>458.6</ele>
        <time>2019-12-31T16:50:51Z</time>
      </trkpt>
      <trkpt lat="61.280461161264" lon="12.257545804587">
        <ele>457.8</ele>
        <time>2019-12-31T16:50:55Z</time>
      </trkpt>
      <trkpt lat="61.280507429352" lon="12.257502051069">
        <ele>457.6</ele>
        <time>2019-12-31T16:50:56Z</time>
      </trkpt>
      <trkpt lat="61.280681186139" lon="12.257334832164">
        <ele>456.6</ele>
        <time>2019-12-31T16:51:00Z</time>
      </trkpt>
      <trkpt lat="61.28106164058" lon="12.256834013639">
        <ele>455.8</ele>
        <time>2019-12-31T16:51:09Z</time>
      </trkpt>
      <trkpt lat="61.281100951691" lon="12.256769305371">
        <ele>455.8</ele>
        <time>2019-12-31T16:51:10Z</time>
      </trkpt>
      <trkpt lat="61.281222489241" lon="12.256568726504">
        <ele>455.6</ele>
        <time>2019-12-31T16:51:13Z</time>
      </trkpt>
      <trkpt lat="61.281373363441" lon="12.256344594498">
        <ele>455.2</ele>
        <time>2019-12-31T16:51:17Z</time>
      </trkpt>
      <trkpt lat="61.281449219636" lon="12.256258177109">
        <ele>455.6</ele>
        <time>2019-12-31T16:51:19Z</time>
      </trkpt>
      <trkpt lat="61.28189312506" lon="12.25588677512">
        <ele>456.2</ele>
        <time>2019-12-31T16:51:30Z</time>
      </trkpt>
      <trkpt lat="61.281934364008" lon="12.255847128733">
        <ele>456.2</ele>
        <time>2019-12-31T16:51:31Z</time>
      </trkpt>
      <trkpt lat="61.282135110513" lon="12.255691057755">
        <ele>456</ele>
        <time>2019-12-31T16:51:36Z</time>
      </trkpt>
      <trkpt lat="61.28244968322" lon="12.255475559106">
        <ele>456.2</ele>
        <time>2019-12-31T16:51:44Z</time>
      </trkpt>
      <trkpt lat="61.28252595851" lon="12.255416299073">
        <ele>456.2</ele>
        <time>2019-12-31T16:51:46Z</time>
      </trkpt>
      <trkpt lat="61.283006073742" lon="12.255145479884">
        <ele>454.8</ele>
        <time>2019-12-31T16:51:56Z</time>
      </trkpt>
      <trkpt lat="61.283198270709" lon="12.255013213502">
        <ele>454.6</ele>
        <time>2019-12-31T16:52:00Z</time>
      </trkpt>
      <trkpt lat="61.28358123972" lon="12.254755050982">
        <ele>454.2</ele>
        <time>2019-12-31T16:52:08Z</time>
      </trkpt>
      <trkpt lat="61.283808724486" lon="12.254603673868">
        <ele>453.4</ele>
        <time>2019-12-31T16:52:13Z</time>
      </trkpt>
      <trkpt lat="61.284246846399" lon="12.254339308742">
        <ele>454</ele>
        <time>2019-12-31T16:52:24Z</time>
      </trkpt>
      <trkpt lat="61.284502242892" lon="12.254160606634">
        <ele>454.8</ele>
        <time>2019-12-31T16:52:31Z</time>
      </trkpt>
      <trkpt lat="61.284693350212" lon="12.253992298082">
        <ele>454.8</ele>
        <time>2019-12-31T16:52:36Z</time>
      </trkpt>
      <trkpt lat="61.284887055921" lon="12.253836227104">
        <ele>455</ele>
        <time>2019-12-31T16:52:41Z</time>
      </trkpt>
      <trkpt lat="61.28500532453" lon="12.253740421987">
        <ele>454.8</ele>
        <time>2019-12-31T16:52:44Z</time>
      </trkpt>
      <trkpt lat="61.285353592475" lon="12.253494245584">
        <ele>454.4</ele>
        <time>2019-12-31T16:52:52Z</time>
      </trkpt>
      <trkpt lat="61.285658358359" lon="12.253264832981">
        <ele>453.8</ele>
        <time>2019-12-31T16:52:59Z</time>
      </trkpt>
      <trkpt lat="61.285982905527" lon="12.252987224453">
        <ele>454</ele>
        <time>2019-12-31T16:53:07Z</time>
      </trkpt>
      <trkpt lat="61.286220783849" lon="12.252867279464">
        <ele>454.4</ele>
        <time>2019-12-31T16:53:13Z</time>
      </trkpt>
      <trkpt lat="61.286399653595" lon="12.252801733006">
        <ele>454.6</ele>
        <time>2019-12-31T16:53:17Z</time>
      </trkpt>
      <trkpt lat="61.286741970391" lon="12.252696707799">
        <ele>453.8</ele>
        <time>2019-12-31T16:53:24Z</time>
      </trkpt>
      <trkpt lat="61.287149582188" lon="12.25229848373">
        <ele>454</ele>
        <time>2019-12-31T16:53:34Z</time>
      </trkpt>
      <trkpt lat="61.28740841526" lon="12.252010397827">
        <ele>454</ele>
        <time>2019-12-31T16:53:41Z</time>
      </trkpt>
      <trkpt lat="61.287629362144" lon="12.251683503727">
        <ele>454.4</ele>
        <time>2019-12-31T16:53:48Z</time>
      </trkpt>
      <trkpt lat="61.287725418718" lon="12.251570431896">
        <ele>454.8</ele>
        <time>2019-12-31T16:53:51Z</time>
      </trkpt>
      <trkpt lat="61.287980144659" lon="12.251139937512">
        <ele>456</ele>
        <time>2019-12-31T16:54:01Z</time>
      </trkpt>
      <trkpt lat="61.288285581095" lon="12.250682285772">
        <ele>457</ele>
        <time>2019-12-31T16:54:12Z</time>
      </trkpt>
      <trkpt lat="61.288679781852" lon="12.250135534435">
        <ele>457.8</ele>
        <time>2019-12-31T16:54:26Z</time>
      </trkpt>
      <trkpt lat="61.288749351622" lon="12.250061941353">
        <ele>458.2</ele>
        <time>2019-12-31T16:54:28Z</time>
      </trkpt>
      <trkpt lat="61.288821184505" lon="12.24999010847">
        <ele>458.8</ele>
        <time>2019-12-31T16:54:30Z</time>
      </trkpt>
      <trkpt lat="61.288885557497" lon="12.249925651659">
        <ele>459.4</ele>
        <time>2019-12-31T16:54:32Z</time>
      </trkpt>
      <trkpt lat="61.289105498553" lon="12.249716774711">
        <ele>459</ele>
        <time>2019-12-31T16:54:39Z</time>
      </trkpt>
      <trkpt lat="61.289538172231" lon="12.249353754622">
        <ele>460.2</ele>
        <time>2019-12-31T16:54:51Z</time>
      </trkpt>
      <trkpt lat="61.289923236717" lon="12.249090143867">
        <ele>459.4</ele>
        <time>2019-12-31T16:55:01Z</time>
      </trkpt>
      <trkpt lat="61.290370913996" lon="12.248764926147">
        <ele>459.2</ele>
        <time>2019-12-31T16:55:12Z</time>
      </trkpt>
      <trkpt lat="61.29073435318" lon="12.248469380353">
        <ele>459.4</ele>
        <time>2019-12-31T16:55:21Z</time>
      </trkpt>
      <trkpt lat="61.291172894188" lon="12.248124548987">
        <ele>460</ele>
        <time>2019-12-31T16:55:32Z</time>
      </trkpt>
      <trkpt lat="61.29134287912" lon="12.247978033375">
        <ele>459.6</ele>
        <time>2019-12-31T16:55:36Z</time>
      </trkpt>
      <trkpt lat="61.291514959527" lon="12.247848784477">
        <ele>459.6</ele>
        <time>2019-12-31T16:55:40Z</time>
      </trkpt>
      <trkpt lat="61.291703468458" lon="12.247800253276">
        <ele>460</ele>
        <time>2019-12-31T16:55:44Z</time>
      </trkpt>
      <trkpt lat="61.292040169381" lon="12.247829673745">
        <ele>458</ele>
        <time>2019-12-31T16:55:50Z</time>
      </trkpt>
      <trkpt lat="61.292435711242" lon="12.247847862468">
        <ele>458</ele>
        <time>2019-12-31T16:55:57Z</time>
      </trkpt>
      <trkpt lat="61.292830917827" lon="12.247757421767">
        <ele>457.6</ele>
        <time>2019-12-31T16:56:06Z</time>
      </trkpt>
      <trkpt lat="61.293292760517" lon="12.247592130699">
        <ele>457</ele>
        <time>2019-12-31T16:56:15Z</time>
      </trkpt>
      <trkpt lat="61.29352133493" lon="12.247495319754">
        <ele>456</ele>
        <time>2019-12-31T16:56:19Z</time>
      </trkpt>
      <trkpt lat="61.29368562017" lon="12.247450057494">
        <ele>454.8</ele>
        <time>2019-12-31T16:56:22Z</time>
      </trkpt>
      <trkpt lat="61.293796512707" lon="12.247417200446">
        <ele>453.4</ele>
        <time>2019-12-31T16:56:24Z</time>
      </trkpt>
      <trkpt lat="61.29391863699" lon="12.247373866023">
        <ele>451.8</ele>
        <time>2019-12-31T16:56:26Z</time>
      </trkpt>
      <trkpt lat="61.294043443481" lon="12.247332878532">
        <ele>450.4</ele>
        <time>2019-12-31T16:56:28Z</time>
      </trkpt>
      <trkpt lat="61.294180068451" lon="12.247289292652">
        <ele>449.2</ele>
        <time>2019-12-31T16:56:30Z</time>
      </trkpt>
      <trkpt lat="61.29431342448" lon="12.247239252709">
        <ele>447.8</ele>
        <time>2019-12-31T16:56:32Z</time>
      </trkpt>
      <trkpt lat="61.294611903939" lon="12.247125426507">
        <ele>446.8</ele>
        <time>2019-12-31T16:56:37Z</time>
      </trkpt>
      <trkpt lat="61.294859589084" lon="12.247056359651">
        <ele>448.6</ele>
        <time>2019-12-31T16:56:40Z</time>
      </trkpt>
      <trkpt lat="61.294914322891" lon="12.24703967967">
        <ele>449.6</ele>
        <time>2019-12-31T16:56:41Z</time>
      </trkpt>
      <trkpt lat="61.29508204471" lon="12.246998356903">
        <ele>451</ele>
        <time>2019-12-31T16:56:44Z</time>
      </trkpt>
      <trkpt lat="61.295532320378" lon="12.2468359995">
        <ele>451.6</ele>
        <time>2019-12-31T16:56:54Z</time>
      </trkpt>
      <trkpt lat="61.295979997657" lon="12.246703146385">
        <ele>450.2</ele>
        <time>2019-12-31T16:57:02Z</time>
      </trkpt>
      <trkpt lat="61.296045711753" lon="12.246685795852">
        <ele>450</ele>
        <time>2019-12-31T16:57:03Z</time>
      </trkpt>
      <trkpt lat="61.296500765104" lon="12.246554116203">
        <ele>449.2</ele>
        <time>2019-12-31T16:57:11Z</time>
      </trkpt>
      <trkpt lat="61.296658596281" lon="12.246506339373">
        <ele>449</ele>
        <time>2019-12-31T16:57:14Z</time>
      </trkpt>
      <trkpt lat="61.296920279199" lon="12.246465938615">
        <ele>447.8</ele>
        <time>2019-12-31T16:57:19Z</time>
      </trkpt>
      <trkpt lat="61.296974845368" lon="12.246450851195">
        <ele>447.4</ele>
        <time>2019-12-31T16:57:20Z</time>
      </trkpt>
      <trkpt lat="61.297445991967" lon="12.246326882894">
        <ele>446.4</ele>
        <time>2019-12-31T16:57:28Z</time>
      </trkpt>
      <trkpt lat="61.297563757662" lon="12.246278267874">
        <ele>444.4</ele>
        <time>2019-12-31T16:57:30Z</time>
      </trkpt>
      <trkpt lat="61.297818483603" lon="12.246154467211">
        <ele>444</ele>
        <time>2019-12-31T16:57:34Z</time>
      </trkpt>
      <trkpt lat="61.298277811723" lon="12.245968640488">
        <ele>445.4</ele>
        <time>2019-12-31T16:57:43Z</time>
      </trkpt>
      <trkpt lat="61.298448718664" lon="12.245897729614">
        <ele>446.6</ele>
        <time>2019-12-31T16:57:47Z</time>
      </trkpt>
      <trkpt lat="61.298899413427" lon="12.245729085786">
        <ele>446.8</ele>
        <time>2019-12-31T16:57:56Z</time>
      </trkpt>
      <trkpt lat="61.299347342163" lon="12.24558290545">
        <ele>444.8</ele>
        <time>2019-12-31T16:58:06Z</time>
      </trkpt>
      <trkpt lat="61.299390508948" lon="12.245570751695">
        <ele>443.8</ele>
        <time>2019-12-31T16:58:07Z</time>
      </trkpt>
      <trkpt lat="61.299475669052" lon="12.245547198556">
        <ele>442.8</ele>
        <time>2019-12-31T16:58:09Z</time>
      </trkpt>
      <trkpt lat="61.299560996794" lon="12.245511324024">
        <ele>443.4</ele>
        <time>2019-12-31T16:58:11Z</time>
      </trkpt>
      <trkpt lat="61.299712793003" lon="12.245422224427">
        <ele>442.2</ele>
        <time>2019-12-31T16:58:15Z</time>
      </trkpt>
      <trkpt lat="61.299783871515" lon="12.245406969369">
        <ele>441.6</ele>
        <time>2019-12-31T16:58:18Z</time>
      </trkpt>
      <trkpt lat="61.299792840148" lon="12.245407388464">
        <ele>441.6</ele>
        <time>2019-12-31T16:58:19Z</time>
      </trkpt>
      <trkpt lat="61.299788733017" lon="12.245415854183">
        <ele>441.4</ele>
        <time>2019-12-31T16:58:48Z</time>
      </trkpt>
      <trkpt lat="61.299709021148" lon="12.245420380409">
        <ele>441.8</ele>
        <time>2019-12-31T16:58:53Z</time>
      </trkpt>
      <trkpt lat="61.299471478102" lon="12.245460362072">
        <ele>442.6</ele>
        <time>2019-12-31T16:59:00Z</time>
      </trkpt>
      <trkpt lat="61.299278107669" lon="12.245517610449">
        <ele>443.8</ele>
        <time>2019-12-31T16:59:05Z</time>
      </trkpt>
      <trkpt lat="61.298820623567" lon="12.245654738333">
        <ele>443.4</ele>
        <time>2019-12-31T16:59:15Z</time>
      </trkpt>
      <trkpt lat="61.298369593528" lon="12.245823885075">
        <ele>443.2</ele>
        <time>2019-12-31T16:59:26Z</time>
      </trkpt>
      <trkpt lat="61.29792267062" lon="12.246012813101">
        <ele>443.2</ele>
        <time>2019-12-31T16:59:36Z</time>
      </trkpt>
      <trkpt lat="61.297743717055" lon="12.24610258325">
        <ele>442.6</ele>
        <time>2019-12-31T16:59:40Z</time>
      </trkpt>
      <trkpt lat="61.297518411583" lon="12.246211464131">
        <ele>443.8</ele>
        <time>2019-12-31T16:59:46Z</time>
      </trkpt>
      <trkpt lat="61.297046259156" lon="12.24635906939">
        <ele>444.4</ele>
        <time>2019-12-31T17:00:02Z</time>
      </trkpt>
      <trkpt lat="61.296795807984" lon="12.2463917588">
        <ele>445</ele>
        <time>2019-12-31T17:00:11Z</time>
      </trkpt>
      <trkpt lat="61.296517109809" lon="12.246479684931">
        <ele>446.2</ele>
        <time>2019-12-31T17:00:20Z</time>
      </trkpt>
      <trkpt lat="61.296066498865" lon="12.246627206371">
        <ele>446.2</ele>
        <time>2019-12-31T17:00:34Z</time>
      </trkpt>
      <trkpt lat="61.295783190645" lon="12.246725945153">
        <ele>447.2</ele>
        <time>2019-12-31T17:00:44Z</time>
      </trkpt>
      <trkpt lat="61.295542713934" lon="12.246803393909">
        <ele>448.2</ele>
        <time>2019-12-31T17:00:53Z</time>
      </trkpt>
      <trkpt lat="61.295072070249" lon="12.246920153776">
        <ele>448.2</ele>
        <time>2019-12-31T17:01:07Z</time>
      </trkpt>
      <trkpt lat="61.294588266981" lon="12.247037500376">
        <ele>448.4</ele>
        <time>2019-12-31T17:01:19Z</time>
      </trkpt>
      <trkpt lat="61.294360782215" lon="12.247097179504">
        <ele>449.2</ele>
        <time>2019-12-31T17:01:25Z</time>
      </trkpt>
      <trkpt lat="61.293918469352" lon="12.247285520797">
        <ele>450.2</ele>
        <time>2019-12-31T17:01:41Z</time>
      </trkpt>
      <trkpt lat="61.293894580937" lon="12.247294070335">
        <ele>450.4</ele>
        <time>2019-12-31T17:01:42Z</time>
      </trkpt>
      <trkpt lat="61.293747143316" lon="12.247358694784">
        <ele>451.4</ele>
        <time>2019-12-31T17:01:48Z</time>
      </trkpt>
      <trkpt lat="61.293518233627" lon="12.247467408027">
        <ele>452.6</ele>
        <time>2019-12-31T17:01:57Z</time>
      </trkpt>
      <trkpt lat="61.293201733083" lon="12.247574361071">
        <ele>453.6</ele>
        <time>2019-12-31T17:02:09Z</time>
      </trkpt>
      <trkpt lat="61.292888836756" lon="12.24769849701">
        <ele>455</ele>
        <time>2019-12-31T17:02:21Z</time>
      </trkpt>
      <trkpt lat="61.29267224846" lon="12.247743088718">
        <ele>456</ele>
        <time>2019-12-31T17:02:28Z</time>
      </trkpt>
      <trkpt lat="61.292217278928" lon="12.247749039867">
        <ele>455.6</ele>
        <time>2019-12-31T17:02:40Z</time>
      </trkpt>
      <trkpt lat="61.291758872817" lon="12.247717021009">
        <ele>456.2</ele>
        <time>2019-12-31T17:02:55Z</time>
      </trkpt>
      <trkpt lat="61.291575225388" lon="12.247755829206">
        <ele>457.2</ele>
        <time>2019-12-31T17:03:02Z</time>
      </trkpt>
      <trkpt lat="61.291231567488" lon="12.248002257066">
        <ele>457.8</ele>
        <time>2019-12-31T17:03:14Z</time>
      </trkpt>
      <trkpt lat="61.290798558534" lon="12.248386567181">
        <ele>457.6</ele>
        <time>2019-12-31T17:03:27Z</time>
      </trkpt>
      <trkpt lat="61.290586412645" lon="12.248538028114">
        <ele>458.4</ele>
        <time>2019-12-31T17:03:33Z</time>
      </trkpt>
      <trkpt lat="61.290155415347" lon="12.248869699897">
        <ele>457.6</ele>
        <time>2019-12-31T17:03:46Z</time>
      </trkpt>
      <trkpt lat="61.290127000706" lon="12.248896438158">
        <ele>457.2</ele>
        <time>2019-12-31T17:03:47Z</time>
      </trkpt>
      <trkpt lat="61.289678736694" lon="12.249230875968">
        <ele>458</ele>
        <time>2019-12-31T17:04:01Z</time>
      </trkpt>
      <trkpt lat="61.289606568535" lon="12.249291141829">
        <ele>458.4</ele>
        <time>2019-12-31T17:04:03Z</time>
      </trkpt>
      <trkpt lat="61.289167273156" lon="12.249669836071">
        <ele>458.2</ele>
        <time>2019-12-31T17:04:16Z</time>
      </trkpt>
      <trkpt lat="61.288748513432" lon="12.250043920268">
        <ele>458.4</ele>
        <time>2019-12-31T17:04:28Z</time>
      </trkpt>
      <trkpt lat="61.288595459938" lon="12.250228322068">
        <ele>456.6</ele>
        <time>2019-12-31T17:04:32Z</time>
      </trkpt>
      <trkpt lat="61.288181058802" lon="12.25079057992">
        <ele>456.8</ele>
        <time>2019-12-31T17:04:43Z</time>
      </trkpt>
      <trkpt lat="61.287796832506" lon="12.251388125571">
        <ele>456.4</ele>
        <time>2019-12-31T17:04:53Z</time>
      </trkpt>
      <trkpt lat="61.287720641035" lon="12.251522235971">
        <ele>455.6</ele>
        <time>2019-12-31T17:04:55Z</time>
      </trkpt>
      <trkpt lat="61.287560379107" lon="12.251792552246">
        <ele>454.4</ele>
        <time>2019-12-31T17:04:59Z</time>
      </trkpt>
      <trkpt lat="61.287181768684" lon="12.252293706047">
        <ele>453.8</ele>
        <time>2019-12-31T17:05:08Z</time>
      </trkpt>
      <trkpt lat="61.28694238162" lon="12.252587156366">
        <ele>453.2</ele>
        <time>2019-12-31T17:05:14Z</time>
      </trkpt>
      <trkpt lat="61.286726044781" lon="12.252791004174">
        <ele>452.2</ele>
        <time>2019-12-31T17:05:19Z</time>
      </trkpt>
      <trkpt lat="61.286686398394" lon="12.252818412987">
        <ele>452</ele>
        <time>2019-12-31T17:05:20Z</time>
      </trkpt>
      <trkpt lat="61.286561256627" lon="12.252858981383">
        <ele>452.4</ele>
        <time>2019-12-31T17:05:23Z</time>
      </trkpt>
      <trkpt lat="61.286109053122" lon="12.25295897745">
        <ele>453</ele>
        <time>2019-12-31T17:05:37Z</time>
      </trkpt>
      <trkpt lat="61.286034370393" lon="12.252981105666">
        <ele>453.4</ele>
        <time>2019-12-31T17:05:39Z</time>
      </trkpt>
      <trkpt lat="61.285576634834" lon="12.253299198771">
        <ele>453.4</ele>
        <time>2019-12-31T17:05:51Z</time>
      </trkpt>
      <trkpt lat="61.285147397735" lon="12.253600695714">
        <ele>453.8</ele>
        <time>2019-12-31T17:06:02Z</time>
      </trkpt>
      <trkpt lat="61.28496425322" lon="12.253722400902">
        <ele>454.4</ele>
        <time>2019-12-31T17:06:07Z</time>
      </trkpt>
      <trkpt lat="61.284533758836" lon="12.254030016632">
        <ele>454.4</ele>
        <time>2019-12-31T17:06:18Z</time>
      </trkpt>
      <trkpt lat="61.284110808162" lon="12.254312067567">
        <ele>454.2</ele>
        <time>2019-12-31T17:06:28Z</time>
      </trkpt>
      <trkpt lat="61.283683331262" lon="12.254622365505">
        <ele>453.4</ele>
        <time>2019-12-31T17:06:37Z</time>
      </trkpt>
      <trkpt lat="61.283248813566" lon="12.254962586826">
        <ele>453.2</ele>
        <time>2019-12-31T17:06:48Z</time>
      </trkpt>
      <trkpt lat="61.282803064124" lon="12.255234328024">
        <ele>454.2</ele>
        <time>2019-12-31T17:07:01Z</time>
      </trkpt>
      <trkpt lat="61.282741289521" lon="12.255270537832">
        <ele>454.4</ele>
        <time>2019-12-31T17:07:03Z</time>
      </trkpt>
      <trkpt lat="61.282285481799" lon="12.25555149912">
        <ele>454.2</ele>
        <time>2019-12-31T17:07:17Z</time>
      </trkpt>
      <trkpt lat="61.281833194475" lon="12.255844446525">
        <ele>455</ele>
        <time>2019-12-31T17:07:30Z</time>
      </trkpt>
      <trkpt lat="61.281417619873" lon="12.25628994451">
        <ele>455</ele>
        <time>2019-12-31T17:07:42Z</time>
      </trkpt>
      <trkpt lat="61.28114294501" lon="12.256717337591">
        <ele>454.6</ele>
        <time>2019-12-31T17:07:49Z</time>
      </trkpt>
      <trkpt lat="61.281050408834" lon="12.25689092674">
        <ele>454.8</ele>
        <time>2019-12-31T17:07:52Z</time>
      </trkpt>
      <trkpt lat="61.280662410683" lon="12.257453771325">
        <ele>454.8</ele>
        <time>2019-12-31T17:08:05Z</time>
      </trkpt>
      <trkpt lat="61.280218840535" lon="12.257776725932">
        <ele>455.4</ele>
        <time>2019-12-31T17:08:18Z</time>
      </trkpt>
      <trkpt lat="61.280188330419" lon="12.257792064809">
        <ele>455.4</ele>
        <time>2019-12-31T17:08:19Z</time>
      </trkpt>
      <trkpt lat="61.28000719756" lon="12.257912596531">
        <ele>456.6</ele>
        <time>2019-12-31T17:08:25Z</time>
      </trkpt>
      <trkpt lat="61.279793962024" lon="12.258056932849">
        <ele>457.8</ele>
        <time>2019-12-31T17:08:33Z</time>
      </trkpt>
      <trkpt lat="61.279595310994" lon="12.258215769854">
        <ele>460</ele>
        <time>2019-12-31T17:08:40Z</time>
      </trkpt>
      <trkpt lat="61.279538481712" lon="12.258259355734">
        <ele>461.2</ele>
        <time>2019-12-31T17:08:42Z</time>
      </trkpt>
      <trkpt lat="61.279487016846" lon="12.258309060401">
        <ele>462.4</ele>
        <time>2019-12-31T17:08:44Z</time>
      </trkpt>
      <trkpt lat="61.279064988181" lon="12.258671493757">
        <ele>462.6</ele>
        <time>2019-12-31T17:08:56Z</time>
      </trkpt>
      <trkpt lat="61.278650670864" lon="12.259029400887">
        <ele>461.4</ele>
        <time>2019-12-31T17:09:06Z</time>
      </trkpt>
      <trkpt lat="61.27860574388" lon="12.259086733083">
        <ele>461.4</ele>
        <time>2019-12-31T17:09:07Z</time>
      </trkpt>
      <trkpt lat="61.278474064231" lon="12.259182119105">
        <ele>460.8</ele>
        <time>2019-12-31T17:09:10Z</time>
      </trkpt>
      <trkpt lat="61.278018675604" lon="12.259470540284">
        <ele>461</ele>
        <time>2019-12-31T17:09:22Z</time>
      </trkpt>
      <trkpt lat="61.277567897022" lon="12.259675226282">
        <ele>461.8</ele>
        <time>2019-12-31T17:09:36Z</time>
      </trkpt>
      <trkpt lat="61.277479048882" lon="12.259721075275">
        <ele>462.6</ele>
        <time>2019-12-31T17:09:39Z</time>
      </trkpt>
      <trkpt lat="61.277030952508" lon="12.259948224765">
        <ele>462.2</ele>
        <time>2019-12-31T17:09:53Z</time>
      </trkpt>
      <trkpt lat="61.276583778143" lon="12.260128267977">
        <ele>463.2</ele>
        <time>2019-12-31T17:10:07Z</time>
      </trkpt>
      <trkpt lat="61.276142052013" lon="12.260309987569">
        <ele>463.4</ele>
        <time>2019-12-31T17:10:18Z</time>
      </trkpt>
      <trkpt lat="61.27570057734" lon="12.260503441821">
        <ele>463</ele>
        <time>2019-12-31T17:10:30Z</time>
      </trkpt>
      <trkpt lat="61.275590690631" lon="12.26054543514">
        <ele>463.8</ele>
        <time>2019-12-31T17:10:34Z</time>
      </trkpt>
      <trkpt lat="61.275411150333" lon="12.26063344509">
        <ele>465</ele>
        <time>2019-12-31T17:10:42Z</time>
      </trkpt>
      <trkpt lat="61.275280141236" lon="12.260686334879">
        <ele>466</ele>
        <time>2019-12-31T17:10:47Z</time>
      </trkpt>
      <trkpt lat="61.275251810414" lon="12.260699075367">
        <ele>466</ele>
        <time>2019-12-31T17:10:48Z</time>
      </trkpt>
      <trkpt lat="61.275115353082" lon="12.260784989842">
        <ele>466.4</ele>
        <time>2019-12-31T17:10:52Z</time>
      </trkpt>
      <trkpt lat="61.274982919062" lon="12.260904264279">
        <ele>467</ele>
        <time>2019-12-31T17:10:56Z</time>
      </trkpt>
      <trkpt lat="61.274542366398" lon="12.261074584487">
        <ele>468</ele>
        <time>2019-12-31T17:11:08Z</time>
      </trkpt>
      <trkpt lat="61.274395012596" lon="12.261097383255">
        <ele>467.6</ele>
        <time>2019-12-31T17:11:12Z</time>
      </trkpt>
      <trkpt lat="61.273952615914" lon="12.261263428694">
        <ele>467.2</ele>
        <time>2019-12-31T17:11:25Z</time>
      </trkpt>
      <trkpt lat="61.273482642781" lon="12.261389743927">
        <ele>466</ele>
        <time>2019-12-31T17:11:40Z</time>
      </trkpt>
      <trkpt lat="61.273060111202" lon="12.26147414966">
        <ele>467.2</ele>
        <time>2019-12-31T17:11:56Z</time>
      </trkpt>
      <trkpt lat="61.27274092845" lon="12.261624856222">
        <ele>468.4</ele>
        <time>2019-12-31T17:12:07Z</time>
      </trkpt>
      <trkpt lat="61.272520065385" lon="12.261767935255">
        <ele>469.4</ele>
        <time>2019-12-31T17:12:15Z</time>
      </trkpt>
      <trkpt lat="61.272305237288" lon="12.261878073421">
        <ele>470.4</ele>
        <time>2019-12-31T17:12:24Z</time>
      </trkpt>
      <trkpt lat="61.271841047666" lon="12.262004975387">
        <ele>471.2</ele>
        <time>2019-12-31T17:12:40Z</time>
      </trkpt>
      <trkpt lat="61.271805843686" lon="12.262021823006">
        <ele>471.6</ele>
        <time>2019-12-31T17:12:41Z</time>
      </trkpt>
      <trkpt lat="61.27157919711" lon="12.262077143546">
        <ele>472.6</ele>
        <time>2019-12-31T17:12:47Z</time>
      </trkpt>
      <trkpt lat="61.271117773515" lon="12.262203458779">
        <ele>471.8</ele>
        <time>2019-12-31T17:13:01Z</time>
      </trkpt>
      <trkpt lat="61.270742767309" lon="12.262311836746">
        <ele>474</ele>
        <time>2019-12-31T17:13:15Z</time>
      </trkpt>
      <trkpt lat="61.270270531063" lon="12.262356093178">
        <ele>474.4</ele>
        <time>2019-12-31T17:13:29Z</time>
      </trkpt>
      <trkpt lat="61.269823524336" lon="12.262465141697">
        <ele>474</ele>
        <time>2019-12-31T17:13:41Z</time>
      </trkpt>
      <trkpt lat="61.269680026208" lon="12.262521719522">
        <ele>475.2</ele>
        <time>2019-12-31T17:13:46Z</time>
      </trkpt>
      <trkpt lat="61.269472406545" lon="12.26260989711">
        <ele>476.4</ele>
        <time>2019-12-31T17:13:54Z</time>
      </trkpt>
      <trkpt lat="61.269160935141" lon="12.262719783819">
        <ele>477.4</ele>
        <time>2019-12-31T17:14:04Z</time>
      </trkpt>
      <trkpt lat="61.268763130167" lon="12.26271634724">
        <ele>478.4</ele>
        <time>2019-12-31T17:14:18Z</time>
      </trkpt>
      <trkpt lat="61.268586607353" lon="12.262699667259">
        <ele>479.4</ele>
        <time>2019-12-31T17:14:25Z</time>
      </trkpt>
      <trkpt lat="61.268363313537" lon="12.262636132457">
        <ele>480.6</ele>
        <time>2019-12-31T17:14:34Z</time>
      </trkpt>
      <trkpt lat="61.268114706383" lon="12.262543344824">
        <ele>481.6</ele>
        <time>2019-12-31T17:14:43Z</time>
      </trkpt>
      <trkpt lat="61.267664682172" lon="12.262394733737">
        <ele>481.8</ele>
        <time>2019-12-31T17:14:56Z</time>
      </trkpt>
      <trkpt lat="61.267218681273" lon="12.262254336912">
        <ele>482</ele>
        <time>2019-12-31T17:15:09Z</time>
      </trkpt>
      <trkpt lat="61.267007960307" lon="12.26235592554">
        <ele>481.6</ele>
        <time>2019-12-31T17:15:17Z</time>
      </trkpt>
      <trkpt lat="61.267491260661" lon="12.262401523076">
        <ele>482</ele>
        <time>2019-12-31T17:15:36Z</time>
      </trkpt>
      <trkpt lat="61.267965592382" lon="12.262511577423">
        <ele>481.8</ele>
        <time>2019-12-31T17:15:47Z</time>
      </trkpt>
      <trkpt lat="61.268455765894" lon="12.262635378086">
        <ele>481.4</ele>
        <time>2019-12-31T17:15:57Z</time>
      </trkpt>
      <trkpt lat="61.268695404415" lon="12.262670498247">
        <ele>480.2</ele>
        <time>2019-12-31T17:16:01Z</time>
      </trkpt>
      <trkpt lat="61.268819372716" lon="12.262716933973">
        <ele>478.4</ele>
        <time>2019-12-31T17:16:03Z</time>
      </trkpt>
      <trkpt lat="61.268881398776" lon="12.262735541791">
        <ele>477.2</ele>
        <time>2019-12-31T17:16:04Z</time>
      </trkpt>
      <trkpt lat="61.269005199439" lon="12.262771332504">
        <ele>475.6</ele>
        <time>2019-12-31T17:16:06Z</time>
      </trkpt>
      <trkpt lat="61.269189685058" lon="12.262776277825">
        <ele>474.2</ele>
        <time>2019-12-31T17:16:09Z</time>
      </trkpt>
      <trkpt lat="61.269513813131" lon="12.262645352547">
        <ele>473.2</ele>
        <time>2019-12-31T17:16:15Z</time>
      </trkpt>
      <trkpt lat="61.269765689226" lon="12.262527503033">
        <ele>472.2</ele>
        <time>2019-12-31T17:16:19Z</time>
      </trkpt>
      <trkpt lat="61.269891836821" lon="12.262491377044">
        <ele>470.8</ele>
        <time>2019-12-31T17:16:21Z</time>
      </trkpt>
      <trkpt lat="61.270125105098" lon="12.262460866928">
        <ele>469.6</ele>
        <time>2019-12-31T17:16:24Z</time>
      </trkpt>
      <trkpt lat="61.270343034498" lon="12.262409485881">
        <ele>471.8</ele>
        <time>2019-12-31T17:16:27Z</time>
      </trkpt>
      <trkpt lat="61.270391565699" lon="12.262398170316">
        <ele>472.8</ele>
        <time>2019-12-31T17:16:28Z</time>
      </trkpt>
      <trkpt lat="61.270448562619" lon="12.262391464796">
        <ele>474</ele>
        <time>2019-12-31T17:16:29Z</time>
      </trkpt>
      <trkpt lat="61.270554845111" lon="12.262381322697">
        <ele>475</ele>
        <time>2019-12-31T17:16:31Z</time>
      </trkpt>
      <trkpt lat="61.271029009194" lon="12.262318877542">
        <ele>473.2</ele>
        <time>2019-12-31T17:16:39Z</time>
      </trkpt>
      <trkpt lat="61.271090197064" lon="12.262305885597">
        <ele>471.8</ele>
        <time>2019-12-31T17:16:40Z</time>
      </trkpt>
      <trkpt lat="61.271150462925" lon="12.262290295263">
        <ele>470.2</ele>
        <time>2019-12-31T17:16:41Z</time>
      </trkpt>
      <trkpt lat="61.271266636059" lon="12.262255845654">
        <ele>468.6</ele>
        <time>2019-12-31T17:16:43Z</time>
      </trkpt>
      <trkpt lat="61.271513566833" lon="12.262183761314">
        <ele>468.2</ele>
        <time>2019-12-31T17:16:47Z</time>
      </trkpt>
      <trkpt lat="61.271686988344" lon="12.2621245851">
        <ele>470.4</ele>
        <time>2019-12-31T17:16:50Z</time>
      </trkpt>
      <trkpt lat="61.271790672447" lon="12.262098182115">
        <ele>471.8</ele>
        <time>2019-12-31T17:16:52Z</time>
      </trkpt>
      <trkpt lat="61.271838616915" lon="12.262085441627">
        <ele>471.6</ele>
        <time>2019-12-31T17:16:53Z</time>
      </trkpt>
      <trkpt lat="61.271990580762" lon="12.262027103603">
        <ele>471.6</ele>
        <time>2019-12-31T17:16:56Z</time>
      </trkpt>
      <trkpt lat="61.27226064558" lon="12.261904392587">
        <ele>471.2</ele>
        <time>2019-12-31T17:17:01Z</time>
      </trkpt>
      <trkpt lat="61.272374555601" lon="12.261863488915">
        <ele>470.8</ele>
        <time>2019-12-31T17:17:03Z</time>
      </trkpt>
      <trkpt lat="61.272615619045" lon="12.261755362405">
        <ele>469.8</ele>
        <time>2019-12-31T17:17:07Z</time>
      </trkpt>
      <trkpt lat="61.272672029232" lon="12.261725355203">
        <ele>468.6</ele>
        <time>2019-12-31T17:17:08Z</time>
      </trkpt>
      <trkpt lat="61.272729696704" lon="12.26169040268">
        <ele>467.4</ele>
        <time>2019-12-31T17:17:09Z</time>
      </trkpt>
      <trkpt lat="61.272789292013" lon="12.261651175388">
        <ele>466</ele>
        <time>2019-12-31T17:17:10Z</time>
      </trkpt>
      <trkpt lat="61.272914182323" lon="12.261579342505">
        <ele>464.6</ele>
        <time>2019-12-31T17:17:12Z</time>
      </trkpt>
      <trkpt lat="61.273108223308" lon="12.261522932318">
        <ele>463.4</ele>
        <time>2019-12-31T17:17:15Z</time>
      </trkpt>
      <trkpt lat="61.273233867989" lon="12.261501893749">
        <ele>462.8</ele>
        <time>2019-12-31T17:17:17Z</time>
      </trkpt>
      <trkpt lat="61.273366050552" lon="12.261474820212">
        <ele>462.2</ele>
        <time>2019-12-31T17:17:19Z</time>
      </trkpt>
      <trkpt lat="61.273502591703" lon="12.261423103889">
        <ele>461</ele>
        <time>2019-12-31T17:17:21Z</time>
      </trkpt>
      <trkpt lat="61.273651454247" lon="12.261369543548">
        <ele>459.6</ele>
        <time>2019-12-31T17:17:23Z</time>
      </trkpt>
      <trkpt lat="61.273962087461" lon="12.261268709291">
        <ele>458.4</ele>
        <time>2019-12-31T17:17:27Z</time>
      </trkpt>
      <trkpt lat="61.274430887128" lon="12.261085061862">
        <ele>457.8</ele>
        <time>2019-12-31T17:17:33Z</time>
      </trkpt>
      <trkpt lat="61.274603302811" lon="12.261028316399">
        <ele>459.8</ele>
        <time>2019-12-31T17:17:36Z</time>
      </trkpt>
      <trkpt lat="61.274700281394" lon="12.260998476835">
        <ele>461</ele>
        <time>2019-12-31T17:17:38Z</time>
      </trkpt>
      <trkpt lat="61.274895747302" lon="12.260928907065">
        <ele>462</ele>
        <time>2019-12-31T17:17:42Z</time>
      </trkpt>
      <trkpt lat="61.275224653058" lon="12.260786666222">
        <ele>462.2</ele>
        <time>2019-12-31T17:17:49Z</time>
      </trkpt>
      <trkpt lat="61.275556241022" lon="12.260633109814">
        <ele>460.6</ele>
        <time>2019-12-31T17:17:55Z</time>
      </trkpt>
      <trkpt lat="61.27574667779" lon="12.260559768189">
        <ele>459</ele>
        <time>2019-12-31T17:17:58Z</time>
      </trkpt>
      <trkpt lat="61.275808033298" lon="12.260536801783">
        <ele>457.4</ele>
        <time>2019-12-31T17:17:59Z</time>
      </trkpt>
      <trkpt lat="61.275868131521" lon="12.260514338291">
        <ele>455.6</ele>
        <time>2019-12-31T17:18:00Z</time>
      </trkpt>
      <trkpt lat="61.275982544456" lon="12.260484582546">
        <ele>454.2</ele>
        <time>2019-12-31T17:18:02Z</time>
      </trkpt>
      <trkpt lat="61.276043816145" lon="12.260458850113">
        <ele>453.8</ele>
        <time>2019-12-31T17:18:03Z</time>
      </trkpt>
      <trkpt lat="61.276308935642" lon="12.260334546536">
        <ele>455.2</ele>
        <time>2019-12-31T17:18:07Z</time>
      </trkpt>
      <trkpt lat="61.276355455187" lon="12.260311831587">
        <ele>456.6</ele>
        <time>2019-12-31T17:18:08Z</time>
      </trkpt>
      <trkpt lat="61.276443968051" lon="12.26026883244">
        <ele>457.8</ele>
        <time>2019-12-31T17:18:10Z</time>
      </trkpt>
      <trkpt lat="61.276721828036" lon="12.260119969896">
        <ele>458.8</ele>
        <time>2019-12-31T17:18:16Z</time>
      </trkpt>
      <trkpt lat="61.27676926959" lon="12.260094908015">
        <ele>458.8</ele>
        <time>2019-12-31T17:18:17Z</time>
      </trkpt>
      <trkpt lat="61.2769193056" lon="12.260013435947">
        <ele>458.8</ele>
        <time>2019-12-31T17:18:20Z</time>
      </trkpt>
      <trkpt lat="61.277365138861" lon="12.25976508025">
        <ele>458</ele>
        <time>2019-12-31T17:18:29Z</time>
      </trkpt>
      <trkpt lat="61.277406461628" lon="12.259730546822">
        <ele>457.8</ele>
        <time>2019-12-31T17:18:30Z</time>
      </trkpt>
      <trkpt lat="61.277560856226" lon="12.259654020075">
        <ele>457.2</ele>
        <time>2019-12-31T17:18:33Z</time>
      </trkpt>
      <trkpt lat="61.277813151416" lon="12.259525693186">
        <ele>456.8</ele>
        <time>2019-12-31T17:18:38Z</time>
      </trkpt>
      <trkpt lat="61.277866879395" lon="12.259511192499">
        <ele>456.6</ele>
        <time>2019-12-31T17:18:39Z</time>
      </trkpt>
      <trkpt lat="61.278348922464" lon="12.259274403824">
        <ele>455.6</ele>
        <time>2019-12-31T17:18:48Z</time>
      </trkpt>
      <trkpt lat="61.278663243714" lon="12.259019510245">
        <ele>455.2</ele>
        <time>2019-12-31T17:18:55Z</time>
      </trkpt>
      <trkpt lat="61.279095414478" lon="12.258617933416">
        <ele>455.4</ele>
        <time>2019-12-31T17:19:06Z</time>
      </trkpt>
      <trkpt lat="61.279531524735" lon="12.258240999373">
        <ele>456</ele>
        <time>2019-12-31T17:19:17Z</time>
      </trkpt>
      <trkpt lat="61.279975178702" lon="12.257928522141">
        <ele>455.2</ele>
        <time>2019-12-31T17:19:26Z</time>
      </trkpt>
      <trkpt lat="61.280135021535" lon="12.257815617948">
        <ele>453.8</ele>
        <time>2019-12-31T17:19:29Z</time>
      </trkpt>
      <trkpt lat="61.280185815849" lon="12.257766332376">
        <ele>452.4</ele>
        <time>2019-12-31T17:19:30Z</time>
      </trkpt>
      <trkpt lat="61.280237196896" lon="12.257720064288">
        <ele>451.2</ele>
        <time>2019-12-31T17:19:31Z</time>
      </trkpt>
      <trkpt lat="61.280337695877" lon="12.257647644672">
        <ele>449.6</ele>
        <time>2019-12-31T17:19:33Z</time>
      </trkpt>
      <trkpt lat="61.280632822576" lon="12.257452430221">
        <ele>450.6</ele>
        <time>2019-12-31T17:19:39Z</time>
      </trkpt>
      <trkpt lat="61.280680096492" lon="12.257415885137">
        <ele>451.2</ele>
        <time>2019-12-31T17:19:40Z</time>
      </trkpt>
      <trkpt lat="61.280723179458" lon="12.257372550714">
        <ele>451.6</ele>
        <time>2019-12-31T17:19:41Z</time>
      </trkpt>
      <trkpt lat="61.280845639017" lon="12.257215893003">
        <ele>452</ele>
        <time>2019-12-31T17:19:44Z</time>
      </trkpt>
      <trkpt lat="61.280886375051" lon="12.257152693477">
        <ele>452.2</ele>
        <time>2019-12-31T17:19:45Z</time>
      </trkpt>
      <trkpt lat="61.28126615894" lon="12.256522542235">
        <ele>451.6</ele>
        <time>2019-12-31T17:19:55Z</time>
      </trkpt>
      <trkpt lat="61.28129801016" lon="12.256464790944">
        <ele>451.2</ele>
        <time>2019-12-31T17:19:56Z</time>
      </trkpt>
      <trkpt lat="61.281333130321" lon="12.256407794024">
        <ele>451</ele>
        <time>2019-12-31T17:19:57Z</time>
      </trkpt>
      <trkpt lat="61.281747028543" lon="12.255961960763">
        <ele>451.6</ele>
        <time>2019-12-31T17:20:08Z</time>
      </trkpt>
      <trkpt lat="61.282211134346" lon="12.255629366971">
        <ele>451.4</ele>
        <time>2019-12-31T17:20:19Z</time>
      </trkpt>
      <trkpt lat="61.282483546096" lon="12.255399535273">
        <ele>451.6</ele>
        <time>2019-12-31T17:20:26Z</time>
      </trkpt>
      <trkpt lat="61.282922757656" lon="12.255140031649">
        <ele>451.2</ele>
        <time>2019-12-31T17:20:35Z</time>
      </trkpt>
      <trkpt lat="61.283172203" lon="12.255002736127">
        <ele>450.2</ele>
        <time>2019-12-31T17:20:40Z</time>
      </trkpt>
      <trkpt lat="61.283365405795" lon="12.254883964604">
        <ele>449.4</ele>
        <time>2019-12-31T17:20:44Z</time>
      </trkpt>
      <trkpt lat="61.283617952442" lon="12.254738035725">
        <ele>449.2</ele>
        <time>2019-12-31T17:20:49Z</time>
      </trkpt>
      <trkpt lat="61.283704369831" lon="12.25467726695">
        <ele>448.8</ele>
        <time>2019-12-31T17:20:51Z</time>
      </trkpt>
      <trkpt lat="61.283836300937" lon="12.254588586448">
        <ele>449</ele>
        <time>2019-12-31T17:20:54Z</time>
      </trkpt>
      <trkpt lat="61.284288588261" lon="12.254260267425">
        <ele>449</ele>
        <time>2019-12-31T17:21:06Z</time>
      </trkpt>
      <trkpt lat="61.284522107995" lon="12.254105705189">
        <ele>449.4</ele>
        <time>2019-12-31T17:21:12Z</time>
      </trkpt>
      <trkpt lat="61.284645070468" lon="12.254039823455">
        <ele>449.6</ele>
        <time>2019-12-31T17:21:15Z</time>
      </trkpt>
      <trkpt lat="61.285091155186" lon="12.253764897135">
        <ele>449.6</ele>
        <time>2019-12-31T17:21:26Z</time>
      </trkpt>
      <trkpt lat="61.285342193091" lon="12.253539675482">
        <ele>449.2</ele>
        <time>2019-12-31T17:21:32Z</time>
      </trkpt>
      <trkpt lat="61.285722060799" lon="12.253230131915">
        <ele>448.8</ele>
        <time>2019-12-31T17:21:41Z</time>
      </trkpt>
      <trkpt lat="61.286038393705" lon="12.252928970248">
        <ele>448.2</ele>
        <time>2019-12-31T17:21:49Z</time>
      </trkpt>
      <trkpt lat="61.286165547128" lon="12.252879181762">
        <ele>448.4</ele>
        <time>2019-12-31T17:21:52Z</time>
      </trkpt>
      <trkpt lat="61.286461679655" lon="12.252844480696">
        <ele>448.2</ele>
        <time>2019-12-31T17:21:58Z</time>
      </trkpt>
      <trkpt lat="61.286720680365" lon="12.252784885387">
        <ele>448</ele>
        <time>2019-12-31T17:22:03Z</time>
      </trkpt>
      <trkpt lat="61.286860490457" lon="12.252677261791">
        <ele>447.8</ele>
        <time>2019-12-31T17:22:06Z</time>
      </trkpt>
      <trkpt lat="61.287127789248" lon="12.252410549733">
        <ele>447.6</ele>
        <time>2019-12-31T17:22:13Z</time>
      </trkpt>
      <trkpt lat="61.287508495146" lon="12.251906546086">
        <ele>448.2</ele>
        <time>2019-12-31T17:22:24Z</time>
      </trkpt>
      <trkpt lat="61.287638498415" lon="12.251718204793">
        <ele>448.8</ele>
        <time>2019-12-31T17:22:28Z</time>
      </trkpt>
      <trkpt lat="61.287908563233" lon="12.251313694299">
        <ele>449.8</ele>
        <time>2019-12-31T17:22:38Z</time>
      </trkpt>
      <trkpt lat="61.288131270316" lon="12.250951177124">
        <ele>450.8</ele>
        <time>2019-12-31T17:22:47Z</time>
      </trkpt>
      <trkpt lat="61.288478280976" lon="12.250448682219">
        <ele>452</ele>
        <time>2019-12-31T17:23:00Z</time>
      </trkpt>
      <trkpt lat="61.288898130347" lon="12.249976110697">
        <ele>452.8</ele>
        <time>2019-12-31T17:23:14Z</time>
      </trkpt>
      <trkpt lat="61.288926293531" lon="12.2499373025">
        <ele>453</ele>
        <time>2019-12-31T17:23:15Z</time>
      </trkpt>
      <trkpt lat="61.289345053255" lon="12.249566906339">
        <ele>453.8</ele>
        <time>2019-12-31T17:23:28Z</time>
      </trkpt>
      <trkpt lat="61.289793820181" lon="12.249194330884">
        <ele>453.8</ele>
        <time>2019-12-31T17:23:41Z</time>
      </trkpt>
      <trkpt lat="61.290220458891" lon="12.248877075969">
        <ele>453.6</ele>
        <time>2019-12-31T17:23:52Z</time>
      </trkpt>
      <trkpt lat="61.290671908025" lon="12.248529813852">
        <ele>453.4</ele>
        <time>2019-12-31T17:24:03Z</time>
      </trkpt>
      <trkpt lat="61.291115478173" lon="12.248143994995">
        <ele>453.8</ele>
        <time>2019-12-31T17:24:15Z</time>
      </trkpt>
      <trkpt lat="61.291436588762" lon="12.247880551878">
        <ele>453.2</ele>
        <time>2019-12-31T17:24:23Z</time>
      </trkpt>
      <trkpt lat="61.291610177911" lon="12.247817017076">
        <ele>453</ele>
        <time>2019-12-31T17:24:27Z</time>
      </trkpt>
      <trkpt lat="61.292071852963" lon="12.247814334868">
        <ele>452</ele>
        <time>2019-12-31T17:24:36Z</time>
      </trkpt>
      <trkpt lat="61.292522380088" lon="12.247786087865">
        <ele>451</ele>
        <time>2019-12-31T17:24:45Z</time>
      </trkpt>
      <trkpt lat="61.292691359192" lon="12.24775381755">
        <ele>451.4</ele>
        <time>2019-12-31T17:24:49Z</time>
      </trkpt>
      <trkpt lat="61.293080111714" lon="12.247646948325">
        <ele>450.8</ele>
        <time>2019-12-31T17:24:58Z</time>
      </trkpt>
      <trkpt lat="61.293564585534" lon="12.247492805184">
        <ele>449.4</ele>
        <time>2019-12-31T17:25:07Z</time>
      </trkpt>
      <trkpt lat="61.293739599606" lon="12.247439328662">
        <ele>448.2</ele>
        <time>2019-12-31T17:25:10Z</time>
      </trkpt>
      <trkpt lat="61.293984937819" lon="12.247355928757">
        <ele>447</ele>
        <time>2019-12-31T17:25:14Z</time>
      </trkpt>
      <trkpt lat="61.294115276364" lon="12.2473053859">
        <ele>445.2</ele>
        <time>2019-12-31T17:25:16Z</time>
      </trkpt>
      <trkpt lat="61.294182415383" lon="12.247274791965">
        <ele>443.6</ele>
        <time>2019-12-31T17:25:17Z</time>
      </trkpt>
      <trkpt lat="61.294250811687" lon="12.247244030392">
        <ele>442.4</ele>
        <time>2019-12-31T17:25:18Z</time>
      </trkpt>
      <trkpt lat="61.294383329526" lon="12.247184099807">
        <ele>441</ele>
        <time>2019-12-31T17:25:20Z</time>
      </trkpt>
      <trkpt lat="61.294711900006" lon="12.247069435415">
        <ele>440.2</ele>
        <time>2019-12-31T17:25:25Z</time>
      </trkpt>
      <trkpt lat="61.294940977333" lon="12.247010510658">
        <ele>442.4</ele>
        <time>2019-12-31T17:25:29Z</time>
      </trkpt>
      <trkpt lat="61.294990095267" lon="12.246993830677">
        <ele>443.6</ele>
        <time>2019-12-31T17:25:30Z</time>
      </trkpt>
      <trkpt lat="61.295076931751" lon="12.246965416036">
        <ele>444.4</ele>
        <time>2019-12-31T17:25:32Z</time>
      </trkpt>
      <trkpt lat="61.295171395764" lon="12.246939180689">
        <ele>444.8</ele>
        <time>2019-12-31T17:25:34Z</time>
      </trkpt>
      <trkpt lat="61.295659306163" lon="12.246805573203">
        <ele>444.6</ele>
        <time>2019-12-31T17:25:45Z</time>
      </trkpt>
      <trkpt lat="61.295875726821" lon="12.246753186328">
        <ele>443.8</ele>
        <time>2019-12-31T17:25:49Z</time>
      </trkpt>
      <trkpt lat="61.296346286687" lon="12.246616812815">
        <ele>442.6</ele>
        <time>2019-12-31T17:25:57Z</time>
      </trkpt>
      <trkpt lat="61.296757502701" lon="12.246477337999">
        <ele>441.6</ele>
        <time>2019-12-31T17:26:05Z</time>
      </trkpt>
      <trkpt lat="61.296808213196" lon="12.246473566144">
        <ele>441.4</ele>
        <time>2019-12-31T17:26:06Z</time>
      </trkpt>
      <trkpt lat="61.297311713929" lon="12.246351860956">
        <ele>440.4</ele>
        <time>2019-12-31T17:26:15Z</time>
      </trkpt>
      <trkpt lat="61.297489745485" lon="12.246295786045">
        <ele>439</ele>
        <time>2019-12-31T17:26:18Z</time>
      </trkpt>
      <trkpt lat="61.29754967607" lon="12.246272568182">
        <ele>438</ele>
        <time>2019-12-31T17:26:19Z</time>
      </trkpt>
      <trkpt lat="61.297609774293" lon="12.246245410826">
        <ele>436.8</ele>
        <time>2019-12-31T17:26:20Z</time>
      </trkpt>
      <trkpt lat="61.2977315633" lon="12.246186486069">
        <ele>435.6</ele>
        <time>2019-12-31T17:26:22Z</time>
      </trkpt>
      <trkpt lat="61.298055020821" lon="12.246066960175">
        <ele>436.8</ele>
        <time>2019-12-31T17:26:28Z</time>
      </trkpt>
      <trkpt lat="61.298148059911" lon="12.24602714615">
        <ele>438.2</ele>
        <time>2019-12-31T17:26:30Z</time>
      </trkpt>
      <trkpt lat="61.298496998408" lon="12.245886665506">
        <ele>439.2</ele>
        <time>2019-12-31T17:26:38Z</time>
      </trkpt>
      <trkpt lat="61.298952973768" lon="12.245725062474">
        <ele>438.4</ele>
        <time>2019-12-31T17:26:47Z</time>
      </trkpt>
      <trkpt lat="61.299001840245" lon="12.245705365009">
        <ele>438.2</ele>
        <time>2019-12-31T17:26:48Z</time>
      </trkpt>
      <trkpt lat="61.299488074264" lon="12.245595645938">
        <ele>439.2</ele>
        <time>2019-12-31T17:26:59Z</time>
      </trkpt>
      <trkpt lat="61.299736178504" lon="12.245424990454">
        <ele>438.2</ele>
        <time>2019-12-31T17:27:05Z</time>
      </trkpt>
      <trkpt lat="61.299807173197" lon="12.245317031582">
        <ele>437.8</ele>
        <time>2019-12-31T17:27:07Z</time>
      </trkpt>
      <trkpt lat="61.299934410439" lon="12.245018384485">
        <ele>437</ele>
        <time>2019-12-31T17:27:11Z</time>
      </trkpt>
      <trkpt lat="61.300011775376" lon="12.24491067707">
        <ele>436</ele>
        <time>2019-12-31T17:27:13Z</time>
      </trkpt>
      <trkpt lat="61.300049493926" lon="12.244875137814">
        <ele>435.8</ele>
        <time>2019-12-31T17:27:14Z</time>
      </trkpt>
      <trkpt lat="61.300268345335" lon="12.24461647238">
        <ele>435.8</ele>
        <time>2019-12-31T17:27:34Z</time>
      </trkpt>
      <trkpt lat="61.300301705297" lon="12.244553943406">
        <ele>435.4</ele>
        <time>2019-12-31T17:27:45Z</time>
      </trkpt>
      <trkpt lat="61.300351829059" lon="12.244514632295">
        <ele>435.4</ele>
        <time>2019-12-31T17:27:47Z</time>
      </trkpt>
      <trkpt lat="61.300592976322" lon="12.244227803677">
        <ele>436.8</ele>
        <time>2019-12-31T17:27:55Z</time>
      </trkpt>
      <trkpt lat="61.300733792242" lon="12.244151360749">
        <ele>437</ele>
        <time>2019-12-31T17:27:59Z</time>
      </trkpt>
      <trkpt lat="61.301157162011" lon="12.244105511756">
        <ele>435.4</ele>
        <time>2019-12-31T17:28:07Z</time>
      </trkpt>
      <trkpt lat="61.301264031236" lon="12.244057902564">
        <ele>434.4</ele>
        <time>2019-12-31T17:28:09Z</time>
      </trkpt>
      <trkpt lat="61.301363356751" lon="12.243960840162">
        <ele>433.8</ele>
        <time>2019-12-31T17:28:11Z</time>
      </trkpt>
      <trkpt lat="61.301445247914" lon="12.243880709198">
        <ele>433.6</ele>
        <time>2019-12-31T17:28:13Z</time>
      </trkpt>
      <trkpt lat="61.301923100033" lon="12.243798231302">
        <ele>435</ele>
        <time>2019-12-31T17:28:25Z</time>
      </trkpt>
      <trkpt lat="61.302310259994" lon="12.24375648944">
        <ele>433.8</ele>
        <time>2019-12-31T17:28:32Z</time>
      </trkpt>
      <trkpt lat="61.302371028769" lon="12.243733942129">
        <ele>433.2</ele>
        <time>2019-12-31T17:28:33Z</time>
      </trkpt>
      <trkpt lat="61.302480580202" lon="12.243673592449">
        <ele>432.2</ele>
        <time>2019-12-31T17:28:35Z</time>
      </trkpt>
      <trkpt lat="61.302935214458" lon="12.243498243101">
        <ele>433</ele>
        <time>2019-12-31T17:28:44Z</time>
      </trkpt>
      <trkpt lat="61.303245512396" lon="12.243487011355">
        <ele>431.8</ele>
        <time>2019-12-31T17:28:50Z</time>
      </trkpt>
      <trkpt lat="61.3033306725" lon="12.243370754402">
        <ele>431.6</ele>
        <time>2019-12-31T17:28:52Z</time>
      </trkpt>
      <trkpt lat="61.303380460986" lon="12.243220131659">
        <ele>431.8</ele>
        <time>2019-12-31T17:28:54Z</time>
      </trkpt>
      <trkpt lat="61.303353471268" lon="12.242633650116">
        <ele>433.2</ele>
        <time>2019-12-31T17:29:04Z</time>
      </trkpt>
      <trkpt lat="61.303340814599" lon="12.242549076745">
        <ele>434.8</ele>
        <time>2019-12-31T17:29:06Z</time>
      </trkpt>
      <trkpt lat="61.303353974182" lon="12.242412367956">
        <ele>435.2</ele>
        <time>2019-12-31T17:29:11Z</time>
      </trkpt>
      <trkpt lat="61.303431842033" lon="12.242288399655">
        <ele>435</ele>
        <time>2019-12-31T17:29:16Z</time>
      </trkpt>
    </trkseg>
  </trk>
</gpx>